<?xml version="1.0" encoding="UTF-8" standalone="no" ?>
<gpx xmlns="http://www.topografix.com/GPX/1/1" xmlns:xsi="http://www.w3.org/2001/XMLSchema-instance" xsi:schemaLocation="http://www.topografix.com/GPX/1/1 http://www.topografix.com/GPX/1/1/gpx.xsd" version="1.1" creator="VisuGPX - https://www.visugpx.com">
  <metadata>
    <name>Découverte mycologique - Ecolo Boussu-Hornu</name>
    <desc><![CDATA[Ce samedi 12 octobre 2013, la local Ecolo Boussu-Hornu vous propose de 9h30 à 12h à Petit-Hornu , une cueillette mycologique encadrée par un guide nature.]]></desc>
  </metadata>
  <wpt lat="50.39865" lon="3.80357">
    <ele>145.8</ele>
    <name><![CDATA[Pause]]></name>
    <desc><![CDATA[]]></desc>
    <cmt><![CDATA[WAYPOINT]]></cmt>
    <type><![CDATA[]]></type>
  </wpt>
  <trk>
    <name><![CDATA[Écolo Champignon]]></name>
    <desc><![CDATA[]]></desc>
    <trkseg>
      <trkpt lat="50.39489" lon="3.81253">
        <ele>162.4</ele>
        <time>2013-10-12T08:00:16.882Z</time>
      </trkpt>
      <trkpt lat="50.39487" lon="3.81257">
        <ele>156.9</ele>
        <time>2013-10-12T08:00:26.555Z</time>
      </trkpt>
      <trkpt lat="50.39487" lon="3.81257">
        <ele>156.3</ele>
        <time>2013-10-12T08:00:26.849Z</time>
      </trkpt>
      <trkpt lat="50.39486" lon="3.81257">
        <ele>158.2</ele>
        <time>2013-10-12T08:00:28.990Z</time>
      </trkpt>
      <trkpt lat="50.39486" lon="3.81258">
        <ele>156.9</ele>
        <time>2013-10-12T08:00:29.733Z</time>
      </trkpt>
      <trkpt lat="50.39491" lon="3.81268">
        <ele>163.3</ele>
        <time>2013-10-12T08:00:43.342Z</time>
      </trkpt>
      <trkpt lat="50.39491" lon="3.81267">
        <ele>163.2</ele>
        <time>2013-10-12T08:00:45.060Z</time>
      </trkpt>
      <trkpt lat="50.39491" lon="3.81268">
        <ele>163.7</ele>
        <time>2013-10-12T08:00:51.166Z</time>
      </trkpt>
      <trkpt lat="50.39491" lon="3.8127">
        <ele>164</ele>
        <time>2013-10-12T08:00:53.480Z</time>
      </trkpt>
      <trkpt lat="50.3949" lon="3.81269">
        <ele>164.3</ele>
        <time>2013-10-12T08:00:54.018Z</time>
      </trkpt>
      <trkpt lat="50.3949" lon="3.81269">
        <ele>164.2</ele>
        <time>2013-10-12T08:00:55.456Z</time>
      </trkpt>
      <trkpt lat="50.3949" lon="3.81268">
        <ele>164</ele>
        <time>2013-10-12T08:00:56.442Z</time>
      </trkpt>
      <trkpt lat="50.3949" lon="3.81262">
        <ele>163.3</ele>
        <time>2013-10-12T08:01:03.414Z</time>
      </trkpt>
      <trkpt lat="50.3949" lon="3.81263">
        <ele>163.4</ele>
        <time>2013-10-12T08:01:03.966Z</time>
      </trkpt>
      <trkpt lat="50.3949" lon="3.81263">
        <ele>163.2</ele>
        <time>2013-10-12T08:01:14.312Z</time>
      </trkpt>
      <trkpt lat="50.39493" lon="3.81265">
        <ele>163</ele>
        <time>2013-10-12T08:01:16.852Z</time>
      </trkpt>
      <trkpt lat="50.39494" lon="3.81266">
        <ele>163.5</ele>
        <time>2013-10-12T08:01:18.845Z</time>
      </trkpt>
      <trkpt lat="50.39493" lon="3.81266">
        <ele>163.6</ele>
        <time>2013-10-12T08:01:19.657Z</time>
      </trkpt>
      <trkpt lat="50.39493" lon="3.81265">
        <ele>163.4</ele>
        <time>2013-10-12T08:01:26.429Z</time>
      </trkpt>
      <trkpt lat="50.39492" lon="3.81265">
        <ele>163.4</ele>
        <time>2013-10-12T08:01:26.977Z</time>
      </trkpt>
      <trkpt lat="50.39491" lon="3.81265">
        <ele>163.5</ele>
        <time>2013-10-12T08:01:30.835Z</time>
      </trkpt>
      <trkpt lat="50.39492" lon="3.81265">
        <ele>163.7</ele>
        <time>2013-10-12T08:01:32.328Z</time>
      </trkpt>
      <trkpt lat="50.39492" lon="3.81265">
        <ele>163.7</ele>
        <time>2013-10-12T08:01:33.644Z</time>
      </trkpt>
      <trkpt lat="50.39494" lon="3.81267">
        <ele>163.7</ele>
        <time>2013-10-12T08:01:38.658Z</time>
      </trkpt>
      <trkpt lat="50.39494" lon="3.81267">
        <ele>163.7</ele>
        <time>2013-10-12T08:01:40.397Z</time>
      </trkpt>
      <trkpt lat="50.39494" lon="3.81267">
        <ele>163.6</ele>
        <time>2013-10-12T08:01:41.336Z</time>
      </trkpt>
      <trkpt lat="50.39494" lon="3.81267">
        <ele>163.6</ele>
        <time>2013-10-12T08:01:41.670Z</time>
      </trkpt>
      <trkpt lat="50.39493" lon="3.81267">
        <ele>163.6</ele>
        <time>2013-10-12T08:01:42.802Z</time>
      </trkpt>
      <trkpt lat="50.39493" lon="3.81267">
        <ele>163.6</ele>
        <time>2013-10-12T08:01:43.954Z</time>
      </trkpt>
      <trkpt lat="50.39493" lon="3.81267">
        <ele>164</ele>
        <time>2013-10-12T08:02:33.417Z</time>
      </trkpt>
      <trkpt lat="50.39492" lon="3.81266">
        <ele>163.8</ele>
        <time>2013-10-12T08:02:34.416Z</time>
      </trkpt>
      <trkpt lat="50.3949" lon="3.81264">
        <ele>162.6</ele>
        <time>2013-10-12T08:02:38.416Z</time>
      </trkpt>
      <trkpt lat="50.39491" lon="3.81265">
        <ele>162.6</ele>
        <time>2013-10-12T08:02:39.499Z</time>
      </trkpt>
      <trkpt lat="50.39491" lon="3.81265">
        <ele>162.9</ele>
        <time>2013-10-12T08:02:40.415Z</time>
      </trkpt>
      <trkpt lat="50.39491" lon="3.81266">
        <ele>163</ele>
        <time>2013-10-12T08:02:42.230Z</time>
      </trkpt>
      <trkpt lat="50.39491" lon="3.81266">
        <ele>163.1</ele>
        <time>2013-10-12T08:02:42.413Z</time>
      </trkpt>
      <trkpt lat="50.39491" lon="3.81265">
        <ele>163</ele>
        <time>2013-10-12T08:02:43.407Z</time>
      </trkpt>
      <trkpt lat="50.39491" lon="3.81263">
        <ele>163.5</ele>
        <time>2013-10-12T08:02:44.340Z</time>
      </trkpt>
      <trkpt lat="50.39485" lon="3.81252">
        <ele>163.7</ele>
        <time>2013-10-12T08:02:54.074Z</time>
      </trkpt>
      <trkpt lat="50.39485" lon="3.81252">
        <ele>163.8</ele>
        <time>2013-10-12T08:02:55.078Z</time>
      </trkpt>
      <trkpt lat="50.39488" lon="3.81244">
        <ele>163.2</ele>
        <time>2013-10-12T08:03:03.326Z</time>
      </trkpt>
      <trkpt lat="50.39488" lon="3.81245">
        <ele>163.2</ele>
        <time>2013-10-12T08:03:04.155Z</time>
      </trkpt>
      <trkpt lat="50.39488" lon="3.81246">
        <ele>162.8</ele>
        <time>2013-10-12T08:03:07.810Z</time>
      </trkpt>
      <trkpt lat="50.39488" lon="3.81246">
        <ele>162.6</ele>
        <time>2013-10-12T08:03:08.060Z</time>
      </trkpt>
      <trkpt lat="50.39489" lon="3.81246">
        <ele>162.3</ele>
        <time>2013-10-12T08:03:12.881Z</time>
      </trkpt>
      <trkpt lat="50.3949" lon="3.81246">
        <ele>162.3</ele>
        <time>2013-10-12T08:03:13.698Z</time>
      </trkpt>
      <trkpt lat="50.39489" lon="3.81245">
        <ele>162</ele>
        <time>2013-10-12T08:03:40.127Z</time>
      </trkpt>
      <trkpt lat="50.39488" lon="3.81243">
        <ele>161.3</ele>
        <time>2013-10-12T08:03:40.960Z</time>
      </trkpt>
      <trkpt lat="50.39485" lon="3.81233">
        <ele>160.1</ele>
        <time>2013-10-12T08:03:44.754Z</time>
      </trkpt>
      <trkpt lat="50.39485" lon="3.8123">
        <ele>159.6</ele>
        <time>2013-10-12T08:03:45.576Z</time>
      </trkpt>
      <trkpt lat="50.39483" lon="3.81217">
        <ele>158.6</ele>
        <time>2013-10-12T08:03:50.069Z</time>
      </trkpt>
      <trkpt lat="50.39483" lon="3.81214">
        <ele>158.6</ele>
        <time>2013-10-12T08:03:50.896Z</time>
      </trkpt>
      <trkpt lat="50.39482" lon="3.81202">
        <ele>157.6</ele>
        <time>2013-10-12T08:03:53.903Z</time>
      </trkpt>
      <trkpt lat="50.39481" lon="3.81198">
        <ele>157.7</ele>
        <time>2013-10-12T08:03:54.902Z</time>
      </trkpt>
      <trkpt lat="50.39479" lon="3.81185">
        <ele>160.1</ele>
        <time>2013-10-12T08:04:01.652Z</time>
      </trkpt>
      <trkpt lat="50.39479" lon="3.81184">
        <ele>160.7</ele>
        <time>2013-10-12T08:04:02.659Z</time>
      </trkpt>
      <trkpt lat="50.39482" lon="3.81171">
        <ele>164.2</ele>
        <time>2013-10-12T08:04:20.324Z</time>
      </trkpt>
      <trkpt lat="50.39482" lon="3.81169">
        <ele>164.2</ele>
        <time>2013-10-12T08:04:21.173Z</time>
      </trkpt>
      <trkpt lat="50.39481" lon="3.81162">
        <ele>164.1</ele>
        <time>2013-10-12T08:04:31.192Z</time>
      </trkpt>
      <trkpt lat="50.39481" lon="3.81162">
        <ele>164.2</ele>
        <time>2013-10-12T08:04:32.021Z</time>
      </trkpt>
      <trkpt lat="50.39481" lon="3.81164">
        <ele>164.4</ele>
        <time>2013-10-12T08:04:33.032Z</time>
      </trkpt>
      <trkpt lat="50.39481" lon="3.81165">
        <ele>164.3</ele>
        <time>2013-10-12T08:04:34.037Z</time>
      </trkpt>
      <trkpt lat="50.39481" lon="3.81166">
        <ele>164.5</ele>
        <time>2013-10-12T08:04:37.507Z</time>
      </trkpt>
      <trkpt lat="50.39481" lon="3.81166">
        <ele>164.7</ele>
        <time>2013-10-12T08:04:38.507Z</time>
      </trkpt>
      <trkpt lat="50.39481" lon="3.81164">
        <ele>165.4</ele>
        <time>2013-10-12T08:04:45.516Z</time>
      </trkpt>
      <trkpt lat="50.39482" lon="3.81164">
        <ele>165.5</ele>
        <time>2013-10-12T08:04:46.507Z</time>
      </trkpt>
      <trkpt lat="50.39483" lon="3.81164">
        <ele>165.8</ele>
        <time>2013-10-12T08:04:49.169Z</time>
      </trkpt>
      <trkpt lat="50.39482" lon="3.81164">
        <ele>165.6</ele>
        <time>2013-10-12T08:04:49.436Z</time>
      </trkpt>
      <trkpt lat="50.39482" lon="3.81164">
        <ele>165.5</ele>
        <time>2013-10-12T08:05:00.694Z</time>
      </trkpt>
      <trkpt lat="50.3948" lon="3.8116">
        <ele>165.4</ele>
        <time>2013-10-12T08:05:01.858Z</time>
      </trkpt>
      <trkpt lat="50.39477" lon="3.81154">
        <ele>165.3</ele>
        <time>2013-10-12T08:05:04.479Z</time>
      </trkpt>
      <trkpt lat="50.39476" lon="3.81146">
        <ele>165</ele>
        <time>2013-10-12T08:05:04.586Z</time>
      </trkpt>
      <trkpt lat="50.39476" lon="3.81137">
        <ele>166.2</ele>
        <time>2013-10-12T08:05:05.717Z</time>
      </trkpt>
      <trkpt lat="50.39475" lon="3.8113">
        <ele>166.7</ele>
        <time>2013-10-12T08:05:06.684Z</time>
      </trkpt>
      <trkpt lat="50.39476" lon="3.81118">
        <ele>170.6</ele>
        <time>2013-10-12T08:05:13.856Z</time>
      </trkpt>
      <trkpt lat="50.39475" lon="3.81116">
        <ele>170.2</ele>
        <time>2013-10-12T08:05:14.669Z</time>
      </trkpt>
      <trkpt lat="50.39472" lon="3.81109">
        <ele>177.2</ele>
        <time>2013-10-12T08:05:26.746Z</time>
      </trkpt>
      <trkpt lat="50.39472" lon="3.81108">
        <ele>176.9</ele>
        <time>2013-10-12T08:05:27.745Z</time>
      </trkpt>
      <trkpt lat="50.39473" lon="3.81107">
        <ele>177</ele>
        <time>2013-10-12T08:05:28.718Z</time>
      </trkpt>
      <trkpt lat="50.39469" lon="3.81104">
        <ele>175.9</ele>
        <time>2013-10-12T08:05:36.231Z</time>
      </trkpt>
      <trkpt lat="50.39469" lon="3.81104">
        <ele>176</ele>
        <time>2013-10-12T08:05:37.231Z</time>
      </trkpt>
      <trkpt lat="50.39469" lon="3.81104">
        <ele>176.5</ele>
        <time>2013-10-12T08:05:46.224Z</time>
      </trkpt>
      <trkpt lat="50.39469" lon="3.81102">
        <ele>176.3</ele>
        <time>2013-10-12T08:05:47.226Z</time>
      </trkpt>
      <trkpt lat="50.3947" lon="3.81101">
        <ele>177</ele>
        <time>2013-10-12T08:05:49.276Z</time>
      </trkpt>
      <trkpt lat="50.3947" lon="3.81102">
        <ele>177.4</ele>
        <time>2013-10-12T08:05:50.074Z</time>
      </trkpt>
      <trkpt lat="50.39469" lon="3.81103">
        <ele>177</ele>
        <time>2013-10-12T08:05:50.995Z</time>
      </trkpt>
      <trkpt lat="50.39469" lon="3.81104">
        <ele>177.2</ele>
        <time>2013-10-12T08:05:51.990Z</time>
      </trkpt>
      <trkpt lat="50.39468" lon="3.81113">
        <ele>177.5</ele>
        <time>2013-10-12T08:06:00.898Z</time>
      </trkpt>
      <trkpt lat="50.39469" lon="3.81111">
        <ele>177.4</ele>
        <time>2013-10-12T08:06:01.892Z</time>
      </trkpt>
      <trkpt lat="50.3947" lon="3.8111">
        <ele>177.5</ele>
        <time>2013-10-12T08:06:02.894Z</time>
      </trkpt>
      <trkpt lat="50.39478" lon="3.81104">
        <ele>176.5</ele>
        <time>2013-10-12T08:06:06.935Z</time>
      </trkpt>
      <trkpt lat="50.39479" lon="3.81103">
        <ele>176.4</ele>
        <time>2013-10-12T08:06:07.925Z</time>
      </trkpt>
      <trkpt lat="50.39482" lon="3.81104">
        <ele>173.9</ele>
        <time>2013-10-12T08:06:21.811Z</time>
      </trkpt>
      <trkpt lat="50.39483" lon="3.81104">
        <ele>174.1</ele>
        <time>2013-10-12T08:06:22.812Z</time>
      </trkpt>
      <trkpt lat="50.39484" lon="3.81103">
        <ele>174.6</ele>
        <time>2013-10-12T08:06:24.841Z</time>
      </trkpt>
      <trkpt lat="50.39484" lon="3.81103">
        <ele>174.8</ele>
        <time>2013-10-12T08:06:24.866Z</time>
      </trkpt>
      <trkpt lat="50.39492" lon="3.81107">
        <ele>175.9</ele>
        <time>2013-10-12T08:06:39.864Z</time>
      </trkpt>
      <trkpt lat="50.39493" lon="3.81108">
        <ele>175.9</ele>
        <time>2013-10-12T08:06:40.284Z</time>
      </trkpt>
      <trkpt lat="50.39496" lon="3.81095">
        <ele>175.8</ele>
        <time>2013-10-12T08:06:51.841Z</time>
      </trkpt>
      <trkpt lat="50.39497" lon="3.81094">
        <ele>175.7</ele>
        <time>2013-10-12T08:06:52.693Z</time>
      </trkpt>
      <trkpt lat="50.39504" lon="3.8109">
        <ele>175</ele>
        <time>2013-10-12T08:06:55.477Z</time>
      </trkpt>
      <trkpt lat="50.39507" lon="3.81089">
        <ele>175.1</ele>
        <time>2013-10-12T08:06:56.319Z</time>
      </trkpt>
      <trkpt lat="50.39514" lon="3.81086">
        <ele>174.9</ele>
        <time>2013-10-12T08:06:59.893Z</time>
      </trkpt>
      <trkpt lat="50.39516" lon="3.81085">
        <ele>174.7</ele>
        <time>2013-10-12T08:07:00.337Z</time>
      </trkpt>
      <trkpt lat="50.39524" lon="3.81091">
        <ele>175</ele>
        <time>2013-10-12T08:07:05.339Z</time>
      </trkpt>
      <trkpt lat="50.39526" lon="3.81092">
        <ele>175</ele>
        <time>2013-10-12T08:07:06.331Z</time>
      </trkpt>
      <trkpt lat="50.3953" lon="3.81095">
        <ele>174.9</ele>
        <time>2013-10-12T08:07:12.324Z</time>
      </trkpt>
      <trkpt lat="50.39542" lon="3.81088">
        <ele>174.6</ele>
        <time>2013-10-12T08:07:24.324Z</time>
      </trkpt>
      <trkpt lat="50.39545" lon="3.81084">
        <ele>176.5</ele>
        <time>2013-10-12T08:07:36.585Z</time>
      </trkpt>
      <trkpt lat="50.39544" lon="3.81084">
        <ele>176.7</ele>
        <time>2013-10-12T08:07:37.580Z</time>
      </trkpt>
      <trkpt lat="50.39544" lon="3.81084">
        <ele>178.1</ele>
        <time>2013-10-12T08:07:43.579Z</time>
      </trkpt>
      <trkpt lat="50.39545" lon="3.81084">
        <ele>178.2</ele>
        <time>2013-10-12T08:07:44.608Z</time>
      </trkpt>
      <trkpt lat="50.39554" lon="3.81083">
        <ele>180.5</ele>
        <time>2013-10-12T08:07:52.230Z</time>
      </trkpt>
      <trkpt lat="50.39554" lon="3.81082">
        <ele>180.2</ele>
        <time>2013-10-12T08:07:53.242Z</time>
      </trkpt>
      <trkpt lat="50.39555" lon="3.81082">
        <ele>180.3</ele>
        <time>2013-10-12T08:07:56.258Z</time>
      </trkpt>
      <trkpt lat="50.39555" lon="3.81082">
        <ele>180.3</ele>
        <time>2013-10-12T08:07:57.257Z</time>
      </trkpt>
      <trkpt lat="50.39555" lon="3.81081">
        <ele>180.4</ele>
        <time>2013-10-12T08:08:10.825Z</time>
      </trkpt>
      <trkpt lat="50.39555" lon="3.81081">
        <ele>180.4</ele>
        <time>2013-10-12T08:08:11.685Z</time>
      </trkpt>
      <trkpt lat="50.39563" lon="3.81076">
        <ele>177.6</ele>
        <time>2013-10-12T08:08:18.520Z</time>
      </trkpt>
      <trkpt lat="50.39563" lon="3.81076">
        <ele>177.4</ele>
        <time>2013-10-12T08:08:18.624Z</time>
      </trkpt>
      <trkpt lat="50.39562" lon="3.81076">
        <ele>177</ele>
        <time>2013-10-12T08:08:19.635Z</time>
      </trkpt>
      <trkpt lat="50.39562" lon="3.81076">
        <ele>177.1</ele>
        <time>2013-10-12T08:08:20.611Z</time>
      </trkpt>
      <trkpt lat="50.39562" lon="3.81076">
        <ele>177.5</ele>
        <time>2013-10-12T08:08:21.613Z</time>
      </trkpt>
      <trkpt lat="50.39562" lon="3.81076">
        <ele>177.9</ele>
        <time>2013-10-12T08:08:22.663Z</time>
      </trkpt>
      <trkpt lat="50.39562" lon="3.81076">
        <ele>177.9</ele>
        <time>2013-10-12T08:08:23.511Z</time>
      </trkpt>
      <trkpt lat="50.39563" lon="3.81077">
        <ele>178.3</ele>
        <time>2013-10-12T08:08:23.744Z</time>
      </trkpt>
      <trkpt lat="50.39563" lon="3.81077">
        <ele>178.2</ele>
        <time>2013-10-12T08:08:26.915Z</time>
      </trkpt>
      <trkpt lat="50.39564" lon="3.81077">
        <ele>178</ele>
        <time>2013-10-12T08:08:27.923Z</time>
      </trkpt>
      <trkpt lat="50.39564" lon="3.81077">
        <ele>177.8</ele>
        <time>2013-10-12T08:08:38.528Z</time>
      </trkpt>
      <trkpt lat="50.39565" lon="3.81077">
        <ele>175.9</ele>
        <time>2013-10-12T08:08:38.567Z</time>
      </trkpt>
      <trkpt lat="50.39572" lon="3.81078">
        <ele>173.7</ele>
        <time>2013-10-12T08:08:40.547Z</time>
      </trkpt>
      <trkpt lat="50.39575" lon="3.81077">
        <ele>174</ele>
        <time>2013-10-12T08:08:41.546Z</time>
      </trkpt>
      <trkpt lat="50.39583" lon="3.81075">
        <ele>172.6</ele>
        <time>2013-10-12T08:08:45.900Z</time>
      </trkpt>
      <trkpt lat="50.39584" lon="3.81074">
        <ele>172.4</ele>
        <time>2013-10-12T08:08:46.759Z</time>
      </trkpt>
      <trkpt lat="50.39589" lon="3.81065">
        <ele>171.8</ele>
        <time>2013-10-12T08:08:57.239Z</time>
      </trkpt>
      <trkpt lat="50.39591" lon="3.81064">
        <ele>170.6</ele>
        <time>2013-10-12T08:08:58.242Z</time>
      </trkpt>
      <trkpt lat="50.39593" lon="3.81064">
        <ele>168.9</ele>
        <time>2013-10-12T08:09:01.230Z</time>
      </trkpt>
      <trkpt lat="50.39592" lon="3.81065">
        <ele>168.8</ele>
        <time>2013-10-12T08:09:02.023Z</time>
      </trkpt>
      <trkpt lat="50.39592" lon="3.81066">
        <ele>169.1</ele>
        <time>2013-10-12T08:09:03.038Z</time>
      </trkpt>
      <trkpt lat="50.39595" lon="3.81071">
        <ele>170.9</ele>
        <time>2013-10-12T08:09:09.671Z</time>
      </trkpt>
      <trkpt lat="50.39594" lon="3.81071">
        <ele>170.9</ele>
        <time>2013-10-12T08:09:10.514Z</time>
      </trkpt>
      <trkpt lat="50.39594" lon="3.81071">
        <ele>170.4</ele>
        <time>2013-10-12T08:09:14.442Z</time>
      </trkpt>
      <trkpt lat="50.39594" lon="3.81071">
        <ele>170.6</ele>
        <time>2013-10-12T08:09:15.442Z</time>
      </trkpt>
      <trkpt lat="50.39595" lon="3.81072">
        <ele>170.3</ele>
        <time>2013-10-12T08:09:21.133Z</time>
      </trkpt>
      <trkpt lat="50.39595" lon="3.81072">
        <ele>170.4</ele>
        <time>2013-10-12T08:09:21.460Z</time>
      </trkpt>
      <trkpt lat="50.39596" lon="3.81071">
        <ele>170.5</ele>
        <time>2013-10-12T08:09:53.050Z</time>
      </trkpt>
      <trkpt lat="50.39598" lon="3.81071">
        <ele>170.5</ele>
        <time>2013-10-12T08:09:53.885Z</time>
      </trkpt>
      <trkpt lat="50.39606" lon="3.81069">
        <ele>168.3</ele>
        <time>2013-10-12T08:09:59.814Z</time>
      </trkpt>
      <trkpt lat="50.39608" lon="3.81068">
        <ele>168</ele>
        <time>2013-10-12T08:10:00.818Z</time>
      </trkpt>
      <trkpt lat="50.39614" lon="3.81066">
        <ele>166.8</ele>
        <time>2013-10-12T08:10:07.593Z</time>
      </trkpt>
      <trkpt lat="50.39618" lon="3.81065">
        <ele>165.4</ele>
        <time>2013-10-12T08:10:08.430Z</time>
      </trkpt>
      <trkpt lat="50.39627" lon="3.81063">
        <ele>164.3</ele>
        <time>2013-10-12T08:10:11.420Z</time>
      </trkpt>
      <trkpt lat="50.3963" lon="3.81063">
        <ele>163.3</ele>
        <time>2013-10-12T08:10:12.260Z</time>
      </trkpt>
      <trkpt lat="50.39636" lon="3.81068">
        <ele>163.6</ele>
        <time>2013-10-12T08:10:24.192Z</time>
      </trkpt>
      <trkpt lat="50.39635" lon="3.81068">
        <ele>163.3</ele>
        <time>2013-10-12T08:10:24.888Z</time>
      </trkpt>
      <trkpt lat="50.39636" lon="3.81068">
        <ele>162.9</ele>
        <time>2013-10-12T08:10:28.773Z</time>
      </trkpt>
      <trkpt lat="50.39637" lon="3.81068">
        <ele>162.4</ele>
        <time>2013-10-12T08:10:29.338Z</time>
      </trkpt>
      <trkpt lat="50.39634" lon="3.81076">
        <ele>161.8</ele>
        <time>2013-10-12T08:10:38.836Z</time>
      </trkpt>
      <trkpt lat="50.39636" lon="3.81075">
        <ele>162.8</ele>
        <time>2013-10-12T08:10:39.824Z</time>
      </trkpt>
      <trkpt lat="50.39636" lon="3.81074">
        <ele>162.8</ele>
        <time>2013-10-12T08:10:40.836Z</time>
      </trkpt>
      <trkpt lat="50.39642" lon="3.81064">
        <ele>163.5</ele>
        <time>2013-10-12T08:10:44.820Z</time>
      </trkpt>
      <trkpt lat="50.39643" lon="3.81062">
        <ele>164</ele>
        <time>2013-10-12T08:10:45.728Z</time>
      </trkpt>
      <trkpt lat="50.39645" lon="3.81049">
        <ele>160.1</ele>
        <time>2013-10-12T08:11:01.412Z</time>
      </trkpt>
      <trkpt lat="50.39646" lon="3.81048">
        <ele>160.1</ele>
        <time>2013-10-12T08:11:02.297Z</time>
      </trkpt>
      <trkpt lat="50.39644" lon="3.81035">
        <ele>160.2</ele>
        <time>2013-10-12T08:11:06.269Z</time>
      </trkpt>
      <trkpt lat="50.39643" lon="3.81033">
        <ele>160.4</ele>
        <time>2013-10-12T08:11:07.314Z</time>
      </trkpt>
      <trkpt lat="50.39646" lon="3.81044">
        <ele>163.3</ele>
        <time>2013-10-12T08:11:22.660Z</time>
      </trkpt>
      <trkpt lat="50.39648" lon="3.81046">
        <ele>163.8</ele>
        <time>2013-10-12T08:11:23.660Z</time>
      </trkpt>
      <trkpt lat="50.39648" lon="3.81044">
        <ele>162</ele>
        <time>2013-10-12T08:11:28.660Z</time>
      </trkpt>
      <trkpt lat="50.39648" lon="3.81044">
        <ele>161.8</ele>
        <time>2013-10-12T08:11:29.666Z</time>
      </trkpt>
      <trkpt lat="50.39647" lon="3.81043">
        <ele>161.7</ele>
        <time>2013-10-12T08:11:30.898Z</time>
      </trkpt>
      <trkpt lat="50.39646" lon="3.81042">
        <ele>161.8</ele>
        <time>2013-10-12T08:11:31.472Z</time>
      </trkpt>
      <trkpt lat="50.39638" lon="3.81039">
        <ele>161.2</ele>
        <time>2013-10-12T08:11:36.978Z</time>
      </trkpt>
      <trkpt lat="50.39637" lon="3.8104">
        <ele>160.9</ele>
        <time>2013-10-12T08:11:37.806Z</time>
      </trkpt>
      <trkpt lat="50.39631" lon="3.81042">
        <ele>161.1</ele>
        <time>2013-10-12T08:12:33.612Z</time>
      </trkpt>
      <trkpt lat="50.39647" lon="3.80989">
        <ele>162.9</ele>
        <time>2013-10-12T08:12:44.876Z</time>
      </trkpt>
      <trkpt lat="50.39649" lon="3.80985">
        <ele>162.9</ele>
        <time>2013-10-12T08:12:55.136Z</time>
      </trkpt>
      <trkpt lat="50.39649" lon="3.80985">
        <ele>162.9</ele>
        <time>2013-10-12T08:12:56.136Z</time>
      </trkpt>
      <trkpt lat="50.3965" lon="3.80986">
        <ele>162.8</ele>
        <time>2013-10-12T08:13:03.081Z</time>
      </trkpt>
      <trkpt lat="50.3963" lon="3.8098">
        <ele>162.8</ele>
        <time>2013-10-12T08:13:23.849Z</time>
      </trkpt>
      <trkpt lat="50.39628" lon="3.80967">
        <ele>162.8</ele>
        <time>2013-10-12T08:13:35.883Z</time>
      </trkpt>
      <trkpt lat="50.39628" lon="3.80965">
        <ele>162.8</ele>
        <time>2013-10-12T08:13:36.883Z</time>
      </trkpt>
      <trkpt lat="50.3962" lon="3.80971">
        <ele>162.7</ele>
        <time>2013-10-12T08:13:49.011Z</time>
      </trkpt>
      <trkpt lat="50.39619" lon="3.80972">
        <ele>162.7</ele>
        <time>2013-10-12T08:13:49.508Z</time>
      </trkpt>
      <trkpt lat="50.39617" lon="3.80972">
        <ele>163</ele>
        <time>2013-10-12T08:13:57.150Z</time>
      </trkpt>
      <trkpt lat="50.39619" lon="3.80972">
        <ele>163</ele>
        <time>2013-10-12T08:13:58.142Z</time>
      </trkpt>
      <trkpt lat="50.39621" lon="3.80972">
        <ele>163</ele>
        <time>2013-10-12T08:13:59.130Z</time>
      </trkpt>
      <trkpt lat="50.39626" lon="3.80962">
        <ele>164.2</ele>
        <time>2013-10-12T08:14:05.172Z</time>
      </trkpt>
      <trkpt lat="50.39626" lon="3.8096">
        <ele>164.1</ele>
        <time>2013-10-12T08:14:05.403Z</time>
      </trkpt>
      <trkpt lat="50.39631" lon="3.80949">
        <ele>164.1</ele>
        <time>2013-10-12T08:14:11.863Z</time>
      </trkpt>
      <trkpt lat="50.39631" lon="3.80948">
        <ele>164</ele>
        <time>2013-10-12T08:14:12.863Z</time>
      </trkpt>
      <trkpt lat="50.39625" lon="3.80941">
        <ele>164.8</ele>
        <time>2013-10-12T08:14:22.135Z</time>
      </trkpt>
      <trkpt lat="50.39622" lon="3.8094">
        <ele>164.5</ele>
        <time>2013-10-12T08:14:22.972Z</time>
      </trkpt>
      <trkpt lat="50.3962" lon="3.80927">
        <ele>165.9</ele>
        <time>2013-10-12T08:14:36.078Z</time>
      </trkpt>
      <trkpt lat="50.39621" lon="3.80925">
        <ele>165.8</ele>
        <time>2013-10-12T08:14:37.110Z</time>
      </trkpt>
      <trkpt lat="50.39619" lon="3.80912">
        <ele>167.4</ele>
        <time>2013-10-12T08:14:55.633Z</time>
      </trkpt>
      <trkpt lat="50.39618" lon="3.80911">
        <ele>167.4</ele>
        <time>2013-10-12T08:14:56.636Z</time>
      </trkpt>
      <trkpt lat="50.39618" lon="3.80906">
        <ele>167.4</ele>
        <time>2013-10-12T08:15:11.058Z</time>
      </trkpt>
      <trkpt lat="50.39618" lon="3.80906">
        <ele>167.4</ele>
        <time>2013-10-12T08:15:11.213Z</time>
      </trkpt>
      <trkpt lat="50.39617" lon="3.80906">
        <ele>167.3</ele>
        <time>2013-10-12T08:15:13.223Z</time>
      </trkpt>
      <trkpt lat="50.39603" lon="3.80887">
        <ele>167.2</ele>
        <time>2013-10-12T08:15:28.791Z</time>
      </trkpt>
      <trkpt lat="50.396" lon="3.80875">
        <ele>167.1</ele>
        <time>2013-10-12T08:15:32.995Z</time>
      </trkpt>
      <trkpt lat="50.396" lon="3.80874">
        <ele>167.1</ele>
        <time>2013-10-12T08:15:33.849Z</time>
      </trkpt>
      <trkpt lat="50.39606" lon="3.80864">
        <ele>167.6</ele>
        <time>2013-10-12T08:15:45.639Z</time>
      </trkpt>
      <trkpt lat="50.39606" lon="3.80863">
        <ele>167.5</ele>
        <time>2013-10-12T08:15:46.638Z</time>
      </trkpt>
      <trkpt lat="50.396" lon="3.80853">
        <ele>168.8</ele>
        <time>2013-10-12T08:15:59.737Z</time>
      </trkpt>
      <trkpt lat="50.39599" lon="3.80852">
        <ele>168.8</ele>
        <time>2013-10-12T08:16:00.741Z</time>
      </trkpt>
      <trkpt lat="50.39592" lon="3.80846">
        <ele>177.9</ele>
        <time>2013-10-12T08:16:26.144Z</time>
      </trkpt>
      <trkpt lat="50.39591" lon="3.80844">
        <ele>177.5</ele>
        <time>2013-10-12T08:16:27.143Z</time>
      </trkpt>
      <trkpt lat="50.3959" lon="3.80831">
        <ele>176.3</ele>
        <time>2013-10-12T08:16:34.139Z</time>
      </trkpt>
      <trkpt lat="50.3959" lon="3.8083">
        <ele>175.9</ele>
        <time>2013-10-12T08:16:35.143Z</time>
      </trkpt>
      <trkpt lat="50.39589" lon="3.80825">
        <ele>175.5</ele>
        <time>2013-10-12T08:16:46.276Z</time>
      </trkpt>
      <trkpt lat="50.39588" lon="3.80831">
        <ele>175.9</ele>
        <time>2013-10-12T08:16:53.246Z</time>
      </trkpt>
      <trkpt lat="50.39589" lon="3.80832">
        <ele>176.3</ele>
        <time>2013-10-12T08:19:42.130Z</time>
      </trkpt>
      <trkpt lat="50.39592" lon="3.8083">
        <ele>176</ele>
        <time>2013-10-12T08:19:42.824Z</time>
      </trkpt>
      <trkpt lat="50.39598" lon="3.80826">
        <ele>177.1</ele>
        <time>2013-10-12T08:19:43.802Z</time>
      </trkpt>
      <trkpt lat="50.39604" lon="3.80821">
        <ele>176.8</ele>
        <time>2013-10-12T08:19:44.806Z</time>
      </trkpt>
      <trkpt lat="50.3961" lon="3.80816">
        <ele>177</ele>
        <time>2013-10-12T08:19:45.808Z</time>
      </trkpt>
      <trkpt lat="50.39616" lon="3.80811">
        <ele>178.2</ele>
        <time>2013-10-12T08:19:46.810Z</time>
      </trkpt>
      <trkpt lat="50.3962" lon="3.80807">
        <ele>178.8</ele>
        <time>2013-10-12T08:19:48.434Z</time>
      </trkpt>
      <trkpt lat="50.39623" lon="3.80803">
        <ele>179.2</ele>
        <time>2013-10-12T08:19:48.613Z</time>
      </trkpt>
      <trkpt lat="50.39629" lon="3.80796">
        <ele>179.5</ele>
        <time>2013-10-12T08:19:50.267Z</time>
      </trkpt>
      <trkpt lat="50.39631" lon="3.80793">
        <ele>179.4</ele>
        <time>2013-10-12T08:19:51.105Z</time>
      </trkpt>
      <trkpt lat="50.39637" lon="3.80785">
        <ele>179.8</ele>
        <time>2013-10-12T08:19:54.371Z</time>
      </trkpt>
      <trkpt lat="50.39639" lon="3.80783">
        <ele>180.4</ele>
        <time>2013-10-12T08:19:55.090Z</time>
      </trkpt>
      <trkpt lat="50.39645" lon="3.80775">
        <ele>180.5</ele>
        <time>2013-10-12T08:19:58.449Z</time>
      </trkpt>
      <trkpt lat="50.39647" lon="3.80773">
        <ele>180.8</ele>
        <time>2013-10-12T08:19:58.870Z</time>
      </trkpt>
      <trkpt lat="50.39653" lon="3.80763">
        <ele>182.6</ele>
        <time>2013-10-12T08:20:21.022Z</time>
      </trkpt>
      <trkpt lat="50.39653" lon="3.80762">
        <ele>182.6</ele>
        <time>2013-10-12T08:20:21.096Z</time>
      </trkpt>
      <trkpt lat="50.39661" lon="3.8076">
        <ele>182.6</ele>
        <time>2013-10-12T08:20:33.825Z</time>
      </trkpt>
      <trkpt lat="50.39663" lon="3.8076">
        <ele>182.7</ele>
        <time>2013-10-12T08:20:34.827Z</time>
      </trkpt>
      <trkpt lat="50.39671" lon="3.80763">
        <ele>183.4</ele>
        <time>2013-10-12T08:20:41.044Z</time>
      </trkpt>
      <trkpt lat="50.39672" lon="3.80763">
        <ele>183.4</ele>
        <time>2013-10-12T08:20:41.081Z</time>
      </trkpt>
      <trkpt lat="50.39673" lon="3.8075">
        <ele>183.5</ele>
        <time>2013-10-12T08:20:54.130Z</time>
      </trkpt>
      <trkpt lat="50.39672" lon="3.80748">
        <ele>183.5</ele>
        <time>2013-10-12T08:20:54.970Z</time>
      </trkpt>
      <trkpt lat="50.39668" lon="3.80736">
        <ele>183</ele>
        <time>2013-10-12T08:21:02.675Z</time>
      </trkpt>
      <trkpt lat="50.39667" lon="3.80735">
        <ele>183.1</ele>
        <time>2013-10-12T08:21:02.831Z</time>
      </trkpt>
      <trkpt lat="50.39667" lon="3.80735">
        <ele>183</ele>
        <time>2013-10-12T08:21:07.813Z</time>
      </trkpt>
      <trkpt lat="50.39668" lon="3.80736">
        <ele>183.1</ele>
        <time>2013-10-12T08:21:09.539Z</time>
      </trkpt>
      <trkpt lat="50.39668" lon="3.8074">
        <ele>183.4</ele>
        <time>2013-10-12T08:21:11.397Z</time>
      </trkpt>
      <trkpt lat="50.39667" lon="3.8074">
        <ele>183.6</ele>
        <time>2013-10-12T08:21:12.406Z</time>
      </trkpt>
      <trkpt lat="50.39667" lon="3.8074">
        <ele>183.6</ele>
        <time>2013-10-12T08:21:12.700Z</time>
      </trkpt>
      <trkpt lat="50.39667" lon="3.80739">
        <ele>184.3</ele>
        <time>2013-10-12T08:21:13.407Z</time>
      </trkpt>
      <trkpt lat="50.39671" lon="3.80738">
        <ele>182.9</ele>
        <time>2013-10-12T08:21:14.301Z</time>
      </trkpt>
      <trkpt lat="50.39678" lon="3.80736">
        <ele>180.8</ele>
        <time>2013-10-12T08:21:20.016Z</time>
      </trkpt>
      <trkpt lat="50.39682" lon="3.80734">
        <ele>180.5</ele>
        <time>2013-10-12T08:21:20.590Z</time>
      </trkpt>
      <trkpt lat="50.39686" lon="3.80723">
        <ele>180.7</ele>
        <time>2013-10-12T08:21:45.049Z</time>
      </trkpt>
      <trkpt lat="50.39687" lon="3.80722">
        <ele>180.7</ele>
        <time>2013-10-12T08:21:45.082Z</time>
      </trkpt>
      <trkpt lat="50.39693" lon="3.80713">
        <ele>180.1</ele>
        <time>2013-10-12T08:21:50.084Z</time>
      </trkpt>
      <trkpt lat="50.39695" lon="3.80711">
        <ele>180.2</ele>
        <time>2013-10-12T08:21:51.091Z</time>
      </trkpt>
      <trkpt lat="50.39702" lon="3.80705">
        <ele>181.1</ele>
        <time>2013-10-12T08:21:55.062Z</time>
      </trkpt>
      <trkpt lat="50.39704" lon="3.80703">
        <ele>181</ele>
        <time>2013-10-12T08:21:55.875Z</time>
      </trkpt>
      <trkpt lat="50.39702" lon="3.80716">
        <ele>180.1</ele>
        <time>2013-10-12T08:22:05.116Z</time>
      </trkpt>
      <trkpt lat="50.397" lon="3.80719">
        <ele>179.7</ele>
        <time>2013-10-12T08:22:06.100Z</time>
      </trkpt>
      <trkpt lat="50.39703" lon="3.8073">
        <ele>180.7</ele>
        <time>2013-10-12T08:22:13.702Z</time>
      </trkpt>
      <trkpt lat="50.39704" lon="3.80731">
        <ele>180.7</ele>
        <time>2013-10-12T08:22:14.529Z</time>
      </trkpt>
      <trkpt lat="50.39711" lon="3.80736">
        <ele>180.7</ele>
        <time>2013-10-12T08:22:24.013Z</time>
      </trkpt>
      <trkpt lat="50.39714" lon="3.80736">
        <ele>180.8</ele>
        <time>2013-10-12T08:22:24.480Z</time>
      </trkpt>
      <trkpt lat="50.39721" lon="3.80746">
        <ele>180.9</ele>
        <time>2013-10-12T08:22:47.855Z</time>
      </trkpt>
      <trkpt lat="50.39722" lon="3.80747">
        <ele>180.9</ele>
        <time>2013-10-12T08:22:48.862Z</time>
      </trkpt>
      <trkpt lat="50.39731" lon="3.80743">
        <ele>180.9</ele>
        <time>2013-10-12T08:22:55.500Z</time>
      </trkpt>
      <trkpt lat="50.39732" lon="3.80743">
        <ele>180.9</ele>
        <time>2013-10-12T08:22:56.323Z</time>
      </trkpt>
      <trkpt lat="50.39739" lon="3.8074">
        <ele>180.9</ele>
        <time>2013-10-12T08:23:02.181Z</time>
      </trkpt>
      <trkpt lat="50.3974" lon="3.80739">
        <ele>180.9</ele>
        <time>2013-10-12T08:23:03.072Z</time>
      </trkpt>
      <trkpt lat="50.39747" lon="3.80731">
        <ele>180.9</ele>
        <time>2013-10-12T08:23:11.755Z</time>
      </trkpt>
      <trkpt lat="50.39747" lon="3.8073">
        <ele>180.9</ele>
        <time>2013-10-12T08:23:12.725Z</time>
      </trkpt>
      <trkpt lat="50.39754" lon="3.80721">
        <ele>180</ele>
        <time>2013-10-12T08:23:28.017Z</time>
      </trkpt>
      <trkpt lat="50.3976" lon="3.80714">
        <ele>178.9</ele>
        <time>2013-10-12T08:23:30.929Z</time>
      </trkpt>
      <trkpt lat="50.39765" lon="3.80705">
        <ele>179.1</ele>
        <time>2013-10-12T08:23:36.938Z</time>
      </trkpt>
      <trkpt lat="50.39765" lon="3.80703">
        <ele>179</ele>
        <time>2013-10-12T08:23:37.941Z</time>
      </trkpt>
      <trkpt lat="50.39772" lon="3.80695">
        <ele>179.7</ele>
        <time>2013-10-12T08:23:43.035Z</time>
      </trkpt>
      <trkpt lat="50.39774" lon="3.80694">
        <ele>179.8</ele>
        <time>2013-10-12T08:23:43.280Z</time>
      </trkpt>
      <trkpt lat="50.39782" lon="3.8069">
        <ele>177</ele>
        <time>2013-10-12T08:23:51.738Z</time>
      </trkpt>
      <trkpt lat="50.39783" lon="3.80688">
        <ele>177.4</ele>
        <time>2013-10-12T08:23:52.733Z</time>
      </trkpt>
      <trkpt lat="50.39787" lon="3.80677">
        <ele>180.4</ele>
        <time>2013-10-12T08:24:05.721Z</time>
      </trkpt>
      <trkpt lat="50.39788" lon="3.80676">
        <ele>177.6</ele>
        <time>2013-10-12T08:24:06.727Z</time>
      </trkpt>
      <trkpt lat="50.39789" lon="3.80672">
        <ele>180.1</ele>
        <time>2013-10-12T08:24:19.252Z</time>
      </trkpt>
      <trkpt lat="50.39789" lon="3.80671">
        <ele>180.2</ele>
        <time>2013-10-12T08:24:19.926Z</time>
      </trkpt>
      <trkpt lat="50.39794" lon="3.80669">
        <ele>174.6</ele>
        <time>2013-10-12T08:29:46.705Z</time>
      </trkpt>
      <trkpt lat="50.39795" lon="3.80668">
        <ele>173.9</ele>
        <time>2013-10-12T08:29:47.542Z</time>
      </trkpt>
      <trkpt lat="50.39801" lon="3.80664">
        <ele>170.6</ele>
        <time>2013-10-12T08:29:51.313Z</time>
      </trkpt>
      <trkpt lat="50.39804" lon="3.80663">
        <ele>170</ele>
        <time>2013-10-12T08:29:51.865Z</time>
      </trkpt>
      <trkpt lat="50.39811" lon="3.80658">
        <ele>168.8</ele>
        <time>2013-10-12T08:29:54.861Z</time>
      </trkpt>
      <trkpt lat="50.39814" lon="3.80657">
        <ele>168.7</ele>
        <time>2013-10-12T08:29:55.866Z</time>
      </trkpt>
      <trkpt lat="50.3982" lon="3.80654">
        <ele>168.7</ele>
        <time>2013-10-12T08:29:58.867Z</time>
      </trkpt>
      <trkpt lat="50.39874" lon="3.80529">
        <ele>156.4</ele>
        <time>2013-10-12T08:30:36.184Z</time>
      </trkpt>
      <trkpt lat="50.39882" lon="3.80534">
        <ele>155.9</ele>
        <time>2013-10-12T08:30:41.163Z</time>
      </trkpt>
      <trkpt lat="50.39883" lon="3.80534">
        <ele>155.6</ele>
        <time>2013-10-12T08:30:42.236Z</time>
      </trkpt>
      <trkpt lat="50.39889" lon="3.80527">
        <ele>147.7</ele>
        <time>2013-10-12T08:31:01.183Z</time>
      </trkpt>
      <trkpt lat="50.39891" lon="3.80526">
        <ele>147.3</ele>
        <time>2013-10-12T08:31:02.191Z</time>
      </trkpt>
      <trkpt lat="50.39899" lon="3.80519">
        <ele>146.4</ele>
        <time>2013-10-12T08:31:10.091Z</time>
      </trkpt>
      <trkpt lat="50.39899" lon="3.80518">
        <ele>146.6</ele>
        <time>2013-10-12T08:31:10.941Z</time>
      </trkpt>
      <trkpt lat="50.39904" lon="3.80508">
        <ele>145.9</ele>
        <time>2013-10-12T08:31:16.833Z</time>
      </trkpt>
      <trkpt lat="50.39905" lon="3.80506">
        <ele>146.6</ele>
        <time>2013-10-12T08:31:17.835Z</time>
      </trkpt>
      <trkpt lat="50.39906" lon="3.80492">
        <ele>147</ele>
        <time>2013-10-12T08:31:24.861Z</time>
      </trkpt>
      <trkpt lat="50.39907" lon="3.80491">
        <ele>147.4</ele>
        <time>2013-10-12T08:31:25.854Z</time>
      </trkpt>
      <trkpt lat="50.39911" lon="3.80479">
        <ele>147</ele>
        <time>2013-10-12T08:31:34.282Z</time>
      </trkpt>
      <trkpt lat="50.39911" lon="3.80478">
        <ele>147</ele>
        <time>2013-10-12T08:31:35.123Z</time>
      </trkpt>
      <trkpt lat="50.39908" lon="3.80465">
        <ele>149.3</ele>
        <time>2013-10-12T08:31:40.048Z</time>
      </trkpt>
      <trkpt lat="50.39907" lon="3.80463">
        <ele>148.2</ele>
        <time>2013-10-12T08:31:41.047Z</time>
      </trkpt>
      <trkpt lat="50.39905" lon="3.8045">
        <ele>153.9</ele>
        <time>2013-10-12T08:32:07.037Z</time>
      </trkpt>
      <trkpt lat="50.39905" lon="3.80449">
        <ele>153.8</ele>
        <time>2013-10-12T08:32:07.758Z</time>
      </trkpt>
      <trkpt lat="50.39897" lon="3.80444">
        <ele>155.1</ele>
        <time>2013-10-12T08:32:20.148Z</time>
      </trkpt>
      <trkpt lat="50.39896" lon="3.80444">
        <ele>155.1</ele>
        <time>2013-10-12T08:32:21.075Z</time>
      </trkpt>
      <trkpt lat="50.39897" lon="3.80431">
        <ele>152.1</ele>
        <time>2013-10-12T08:32:29.216Z</time>
      </trkpt>
      <trkpt lat="50.39898" lon="3.80428">
        <ele>152</ele>
        <time>2013-10-12T08:32:30.214Z</time>
      </trkpt>
      <trkpt lat="50.39892" lon="3.8043">
        <ele>149.3</ele>
        <time>2013-10-12T08:32:43.754Z</time>
      </trkpt>
      <trkpt lat="50.39893" lon="3.80429">
        <ele>149.2</ele>
        <time>2013-10-12T08:32:44.593Z</time>
      </trkpt>
      <trkpt lat="50.39893" lon="3.80429">
        <ele>148.9</ele>
        <time>2013-10-12T08:32:45.421Z</time>
      </trkpt>
      <trkpt lat="50.39893" lon="3.80426">
        <ele>148.9</ele>
        <time>2013-10-12T08:32:46.342Z</time>
      </trkpt>
      <trkpt lat="50.39887" lon="3.80415">
        <ele>147.6</ele>
        <time>2013-10-12T08:33:09.652Z</time>
      </trkpt>
      <trkpt lat="50.39887" lon="3.80415">
        <ele>147.7</ele>
        <time>2013-10-12T08:33:10.595Z</time>
      </trkpt>
      <trkpt lat="50.3988" lon="3.80406">
        <ele>146</ele>
        <time>2013-10-12T08:33:27.340Z</time>
      </trkpt>
      <trkpt lat="50.39879" lon="3.80406">
        <ele>145.9</ele>
        <time>2013-10-12T08:33:28.357Z</time>
      </trkpt>
      <trkpt lat="50.39872" lon="3.80399">
        <ele>145.4</ele>
        <time>2013-10-12T08:33:37.848Z</time>
      </trkpt>
      <trkpt lat="50.39872" lon="3.80397">
        <ele>145.4</ele>
        <time>2013-10-12T08:33:37.875Z</time>
      </trkpt>
      <trkpt lat="50.39864" lon="3.80393">
        <ele>144.9</ele>
        <time>2013-10-12T08:33:53.236Z</time>
      </trkpt>
      <trkpt lat="50.39863" lon="3.80394">
        <ele>144.9</ele>
        <time>2013-10-12T08:33:54.235Z</time>
      </trkpt>
      <trkpt lat="50.39861" lon="3.80392">
        <ele>144.8</ele>
        <time>2013-10-12T08:34:02.891Z</time>
      </trkpt>
      <trkpt lat="50.39861" lon="3.80392">
        <ele>144.9</ele>
        <time>2013-10-12T08:34:03.075Z</time>
      </trkpt>
      <trkpt lat="50.39862" lon="3.80394">
        <ele>145.2</ele>
        <time>2013-10-12T08:34:04.061Z</time>
      </trkpt>
      <trkpt lat="50.39868" lon="3.80389">
        <ele>145.3</ele>
        <time>2013-10-12T08:34:11.286Z</time>
      </trkpt>
      <trkpt lat="50.3987" lon="3.80388">
        <ele>145.4</ele>
        <time>2013-10-12T08:34:12.293Z</time>
      </trkpt>
      <trkpt lat="50.39877" lon="3.80379">
        <ele>144.8</ele>
        <time>2013-10-12T08:34:19.301Z</time>
      </trkpt>
      <trkpt lat="50.39877" lon="3.80378">
        <ele>144.9</ele>
        <time>2013-10-12T08:34:20.340Z</time>
      </trkpt>
      <trkpt lat="50.39879" lon="3.80366">
        <ele>145.1</ele>
        <time>2013-10-12T08:34:27.818Z</time>
      </trkpt>
      <trkpt lat="50.39879" lon="3.80364">
        <ele>145.1</ele>
        <time>2013-10-12T08:34:28.335Z</time>
      </trkpt>
      <trkpt lat="50.39872" lon="3.80361">
        <ele>145.1</ele>
        <time>2013-10-12T08:34:39.500Z</time>
      </trkpt>
      <trkpt lat="50.3987" lon="3.80361">
        <ele>145.3</ele>
        <time>2013-10-12T08:34:41.633Z</time>
      </trkpt>
      <trkpt lat="50.39862" lon="3.8036">
        <ele>149</ele>
        <time>2013-10-12T08:34:45.954Z</time>
      </trkpt>
      <trkpt lat="50.39861" lon="3.80359">
        <ele>148.6</ele>
        <time>2013-10-12T08:34:46.316Z</time>
      </trkpt>
      <trkpt lat="50.39862" lon="3.80357">
        <ele>149.2</ele>
        <time>2013-10-12T08:34:51.745Z</time>
      </trkpt>
      <trkpt lat="50.39862" lon="3.80358">
        <ele>149.3</ele>
        <time>2013-10-12T08:34:52.336Z</time>
      </trkpt>
      <trkpt lat="50.39863" lon="3.80358">
        <ele>149.3</ele>
        <time>2013-10-12T08:34:53.325Z</time>
      </trkpt>
      <trkpt lat="50.39864" lon="3.80359">
        <ele>149.2</ele>
        <time>2013-10-12T08:34:57.303Z</time>
      </trkpt>
      <trkpt lat="50.39864" lon="3.80359">
        <ele>149.2</ele>
        <time>2013-10-12T08:34:58.201Z</time>
      </trkpt>
      <trkpt lat="50.39865" lon="3.80358">
        <ele>146.5</ele>
        <time>2013-10-12T08:37:00.481Z</time>
      </trkpt>
      <trkpt lat="50.39865" lon="3.80357">
        <ele>145.9</ele>
        <time>2013-10-12T08:37:01.489Z</time>
      </trkpt>
      <trkpt lat="50.39865" lon="3.80357">
        <ele>145.9</ele>
        <time>2013-10-12T08:37:02.489Z</time>
      </trkpt>
      <trkpt lat="50.39865" lon="3.80357">
        <ele>145.8</ele>
        <time>2013-10-12T08:37:03.520Z</time>
      </trkpt>
      <trkpt lat="50.39866" lon="3.80354">
        <ele>144.5</ele>
        <time>2013-10-12T08:38:53.042Z</time>
      </trkpt>
      <trkpt lat="50.39865" lon="3.80351">
        <ele>145.2</ele>
        <time>2013-10-12T08:38:54.051Z</time>
      </trkpt>
      <trkpt lat="50.39865" lon="3.80339">
        <ele>145.6</ele>
        <time>2013-10-12T08:38:56.041Z</time>
      </trkpt>
      <trkpt lat="50.39864" lon="3.80333">
        <ele>145.7</ele>
        <time>2013-10-12T08:38:57.051Z</time>
      </trkpt>
      <trkpt lat="50.39864" lon="3.80321">
        <ele>146</ele>
        <time>2013-10-12T08:38:59.061Z</time>
      </trkpt>
      <trkpt lat="50.39864" lon="3.80315">
        <ele>146.5</ele>
        <time>2013-10-12T08:38:59.868Z</time>
      </trkpt>
      <trkpt lat="50.39865" lon="3.80308">
        <ele>146.1</ele>
        <time>2013-10-12T08:39:00.706Z</time>
      </trkpt>
      <trkpt lat="50.39865" lon="3.80301">
        <ele>146.7</ele>
        <time>2013-10-12T08:39:01.639Z</time>
      </trkpt>
      <trkpt lat="50.39865" lon="3.80289">
        <ele>146.6</ele>
        <time>2013-10-12T08:39:03.637Z</time>
      </trkpt>
      <trkpt lat="50.39865" lon="3.80284">
        <ele>146.9</ele>
        <time>2013-10-12T08:39:04.489Z</time>
      </trkpt>
      <trkpt lat="50.39864" lon="3.80271">
        <ele>147.3</ele>
        <time>2013-10-12T08:39:14.060Z</time>
      </trkpt>
      <trkpt lat="50.39863" lon="3.8026">
        <ele>147.3</ele>
        <time>2013-10-12T08:39:14.312Z</time>
      </trkpt>
      <trkpt lat="50.39869" lon="3.80256">
        <ele>140.9</ele>
        <time>2013-10-12T08:39:19.302Z</time>
      </trkpt>
      <trkpt lat="50.39872" lon="3.80251">
        <ele>140.4</ele>
        <time>2013-10-12T08:39:20.303Z</time>
      </trkpt>
      <trkpt lat="50.3987" lon="3.80242">
        <ele>137.9</ele>
        <time>2013-10-12T08:39:29.573Z</time>
      </trkpt>
      <trkpt lat="50.3987" lon="3.80242">
        <ele>138</ele>
        <time>2013-10-12T08:39:30.580Z</time>
      </trkpt>
      <trkpt lat="50.3987" lon="3.80242">
        <ele>138.5</ele>
        <time>2013-10-12T08:40:20.897Z</time>
      </trkpt>
      <trkpt lat="50.3987" lon="3.80239">
        <ele>139.1</ele>
        <time>2013-10-12T08:40:21.898Z</time>
      </trkpt>
      <trkpt lat="50.39867" lon="3.80228">
        <ele>140.3</ele>
        <time>2013-10-12T08:40:23.897Z</time>
      </trkpt>
      <trkpt lat="50.39866" lon="3.80224">
        <ele>139.9</ele>
        <time>2013-10-12T08:40:24.897Z</time>
      </trkpt>
      <trkpt lat="50.39866" lon="3.8021">
        <ele>138.7</ele>
        <time>2013-10-12T08:40:35.276Z</time>
      </trkpt>
      <trkpt lat="50.39866" lon="3.80209">
        <ele>138.5</ele>
        <time>2013-10-12T08:40:36.121Z</time>
      </trkpt>
      <trkpt lat="50.39863" lon="3.80196">
        <ele>139.6</ele>
        <time>2013-10-12T08:40:51.966Z</time>
      </trkpt>
      <trkpt lat="50.39863" lon="3.80195">
        <ele>139.6</ele>
        <time>2013-10-12T08:40:52.537Z</time>
      </trkpt>
      <trkpt lat="50.39856" lon="3.80198">
        <ele>140.4</ele>
        <time>2013-10-12T08:41:02.702Z</time>
      </trkpt>
      <trkpt lat="50.39854" lon="3.80199">
        <ele>140.2</ele>
        <time>2013-10-12T08:41:03.697Z</time>
      </trkpt>
      <trkpt lat="50.39852" lon="3.80196">
        <ele>142.8</ele>
        <time>2013-10-12T08:41:13.719Z</time>
      </trkpt>
      <trkpt lat="50.39853" lon="3.80196">
        <ele>143</ele>
        <time>2013-10-12T08:41:14.731Z</time>
      </trkpt>
      <trkpt lat="50.39855" lon="3.80197">
        <ele>142.9</ele>
        <time>2013-10-12T08:41:15.736Z</time>
      </trkpt>
      <trkpt lat="50.39862" lon="3.80191">
        <ele>144.8</ele>
        <time>2013-10-12T08:41:20.948Z</time>
      </trkpt>
      <trkpt lat="50.39863" lon="3.8019">
        <ele>144.7</ele>
        <time>2013-10-12T08:41:21.953Z</time>
      </trkpt>
      <trkpt lat="50.39869" lon="3.80186">
        <ele>144.4</ele>
        <time>2013-10-12T08:41:32.080Z</time>
      </trkpt>
      <trkpt lat="50.39873" lon="3.80186">
        <ele>143.3</ele>
        <time>2013-10-12T08:41:34.111Z</time>
      </trkpt>
      <trkpt lat="50.39865" lon="3.80185">
        <ele>137.2</ele>
        <time>2013-10-12T08:41:46.007Z</time>
      </trkpt>
      <trkpt lat="50.39866" lon="3.80186">
        <ele>137.1</ele>
        <time>2013-10-12T08:41:47.019Z</time>
      </trkpt>
      <trkpt lat="50.39866" lon="3.80186">
        <ele>137.1</ele>
        <time>2013-10-12T08:41:47.127Z</time>
      </trkpt>
      <trkpt lat="50.39867" lon="3.80188">
        <ele>138.1</ele>
        <time>2013-10-12T08:41:48.000Z</time>
      </trkpt>
      <trkpt lat="50.39859" lon="3.80191">
        <ele>139.3</ele>
        <time>2013-10-12T08:41:56.510Z</time>
      </trkpt>
      <trkpt lat="50.39858" lon="3.8019">
        <ele>139.6</ele>
        <time>2013-10-12T08:41:57.433Z</time>
      </trkpt>
      <trkpt lat="50.39854" lon="3.80202">
        <ele>139.2</ele>
        <time>2013-10-12T08:42:06.408Z</time>
      </trkpt>
      <trkpt lat="50.39854" lon="3.80204">
        <ele>139.3</ele>
        <time>2013-10-12T08:42:07.364Z</time>
      </trkpt>
      <trkpt lat="50.39852" lon="3.80218">
        <ele>141.2</ele>
        <time>2013-10-12T08:42:12.362Z</time>
      </trkpt>
      <trkpt lat="50.39852" lon="3.8022">
        <ele>141.2</ele>
        <time>2013-10-12T08:42:13.359Z</time>
      </trkpt>
      <trkpt lat="50.39858" lon="3.80228">
        <ele>141.7</ele>
        <time>2013-10-12T08:42:18.716Z</time>
      </trkpt>
      <trkpt lat="50.39859" lon="3.8023">
        <ele>141.7</ele>
        <time>2013-10-12T08:42:19.758Z</time>
      </trkpt>
      <trkpt lat="50.39852" lon="3.80236">
        <ele>142.2</ele>
        <time>2013-10-12T08:42:29.071Z</time>
      </trkpt>
      <trkpt lat="50.3985" lon="3.8024">
        <ele>142.3</ele>
        <time>2013-10-12T08:42:30.062Z</time>
      </trkpt>
      <trkpt lat="50.39847" lon="3.80251">
        <ele>142.5</ele>
        <time>2013-10-12T08:42:33.071Z</time>
      </trkpt>
      <trkpt lat="50.39847" lon="3.80254">
        <ele>142.7</ele>
        <time>2013-10-12T08:42:34.061Z</time>
      </trkpt>
      <trkpt lat="50.39853" lon="3.80263">
        <ele>142.9</ele>
        <time>2013-10-12T08:42:39.066Z</time>
      </trkpt>
      <trkpt lat="50.39854" lon="3.80264">
        <ele>142.9</ele>
        <time>2013-10-12T08:42:40.071Z</time>
      </trkpt>
      <trkpt lat="50.39849" lon="3.80273">
        <ele>144</ele>
        <time>2013-10-12T08:42:58.999Z</time>
      </trkpt>
      <trkpt lat="50.39848" lon="3.80275">
        <ele>143.9</ele>
        <time>2013-10-12T08:42:59.993Z</time>
      </trkpt>
      <trkpt lat="50.39854" lon="3.80285">
        <ele>143.7</ele>
        <time>2013-10-12T08:43:06.347Z</time>
      </trkpt>
      <trkpt lat="50.39855" lon="3.80287">
        <ele>143.6</ele>
        <time>2013-10-12T08:43:07.266Z</time>
      </trkpt>
      <trkpt lat="50.39861" lon="3.80297">
        <ele>143.9</ele>
        <time>2013-10-12T08:43:13.819Z</time>
      </trkpt>
      <trkpt lat="50.39861" lon="3.80299">
        <ele>144.4</ele>
        <time>2013-10-12T08:43:14.742Z</time>
      </trkpt>
      <trkpt lat="50.3986" lon="3.80312">
        <ele>144</ele>
        <time>2013-10-12T08:43:20.742Z</time>
      </trkpt>
      <trkpt lat="50.3986" lon="3.80315">
        <ele>143.8</ele>
        <time>2013-10-12T08:43:21.748Z</time>
      </trkpt>
      <trkpt lat="50.39863" lon="3.80327">
        <ele>144.8</ele>
        <time>2013-10-12T08:43:35.250Z</time>
      </trkpt>
      <trkpt lat="50.39864" lon="3.80329">
        <ele>144.7</ele>
        <time>2013-10-12T08:43:36.234Z</time>
      </trkpt>
      <trkpt lat="50.39866" lon="3.80338">
        <ele>145.4</ele>
        <time>2013-10-12T08:43:46.004Z</time>
      </trkpt>
      <trkpt lat="50.39866" lon="3.80337">
        <ele>145.4</ele>
        <time>2013-10-12T08:43:46.835Z</time>
      </trkpt>
      <trkpt lat="50.39866" lon="3.80336">
        <ele>145.4</ele>
        <time>2013-10-12T08:43:47.808Z</time>
      </trkpt>
      <trkpt lat="50.39865" lon="3.80335">
        <ele>145.7</ele>
        <time>2013-10-12T08:43:48.772Z</time>
      </trkpt>
      <trkpt lat="50.39864" lon="3.80334">
        <ele>145.3</ele>
        <time>2013-10-12T08:43:52.985Z</time>
      </trkpt>
      <trkpt lat="50.39864" lon="3.80334">
        <ele>145.1</ele>
        <time>2013-10-12T08:43:53.986Z</time>
      </trkpt>
      <trkpt lat="50.39864" lon="3.80336">
        <ele>147.5</ele>
        <time>2013-10-12T08:44:18.813Z</time>
      </trkpt>
      <trkpt lat="50.39862" lon="3.80336">
        <ele>148.5</ele>
        <time>2013-10-12T08:44:19.812Z</time>
      </trkpt>
      <trkpt lat="50.39867" lon="3.80347">
        <ele>148.3</ele>
        <time>2013-10-12T08:44:38.929Z</time>
      </trkpt>
      <trkpt lat="50.39867" lon="3.80348">
        <ele>148.4</ele>
        <time>2013-10-12T08:44:39.934Z</time>
      </trkpt>
      <trkpt lat="50.39866" lon="3.8035">
        <ele>149.2</ele>
        <time>2013-10-12T08:44:44.941Z</time>
      </trkpt>
      <trkpt lat="50.39866" lon="3.8035">
        <ele>149.1</ele>
        <time>2013-10-12T08:44:45.942Z</time>
      </trkpt>
      <trkpt lat="50.39864" lon="3.80347">
        <ele>150.7</ele>
        <time>2013-10-12T08:51:07.638Z</time>
      </trkpt>
      <trkpt lat="50.39863" lon="3.80344">
        <ele>152</ele>
        <time>2013-10-12T08:51:08.442Z</time>
      </trkpt>
      <trkpt lat="50.39862" lon="3.80335">
        <ele>154.3</ele>
        <time>2013-10-12T08:51:10.453Z</time>
      </trkpt>
      <trkpt lat="50.39861" lon="3.80328">
        <ele>156.1</ele>
        <time>2013-10-12T08:51:11.455Z</time>
      </trkpt>
      <trkpt lat="50.3986" lon="3.80315">
        <ele>156.9</ele>
        <time>2013-10-12T08:51:13.446Z</time>
      </trkpt>
      <trkpt lat="50.3986" lon="3.80309">
        <ele>158.2</ele>
        <time>2013-10-12T08:51:14.454Z</time>
      </trkpt>
      <trkpt lat="50.39857" lon="3.80297">
        <ele>158</ele>
        <time>2013-10-12T08:51:16.436Z</time>
      </trkpt>
      <trkpt lat="50.39857" lon="3.80291">
        <ele>158.3</ele>
        <time>2013-10-12T08:51:17.441Z</time>
      </trkpt>
      <trkpt lat="50.39854" lon="3.80282">
        <ele>159</ele>
        <time>2013-10-12T08:51:20.185Z</time>
      </trkpt>
      <trkpt lat="50.39853" lon="3.80277">
        <ele>158.8</ele>
        <time>2013-10-12T08:51:20.428Z</time>
      </trkpt>
      <trkpt lat="50.39851" lon="3.80264">
        <ele>160.3</ele>
        <time>2013-10-12T08:51:23.174Z</time>
      </trkpt>
      <trkpt lat="50.3985" lon="3.80259">
        <ele>161.4</ele>
        <time>2013-10-12T08:51:24.094Z</time>
      </trkpt>
      <trkpt lat="50.39848" lon="3.80249">
        <ele>161.7</ele>
        <time>2013-10-12T08:51:26.055Z</time>
      </trkpt>
      <trkpt lat="50.39847" lon="3.80241">
        <ele>163.1</ele>
        <time>2013-10-12T08:51:26.918Z</time>
      </trkpt>
      <trkpt lat="50.39846" lon="3.80234">
        <ele>163.5</ele>
        <time>2013-10-12T08:51:27.762Z</time>
      </trkpt>
      <trkpt lat="50.39844" lon="3.80227">
        <ele>163.1</ele>
        <time>2013-10-12T08:51:28.573Z</time>
      </trkpt>
      <trkpt lat="50.39842" lon="3.80219">
        <ele>163.2</ele>
        <time>2013-10-12T08:51:29.557Z</time>
      </trkpt>
      <trkpt lat="50.3984" lon="3.80212">
        <ele>163</ele>
        <time>2013-10-12T08:51:30.569Z</time>
      </trkpt>
      <trkpt lat="50.39838" lon="3.80205">
        <ele>162.8</ele>
        <time>2013-10-12T08:51:32.487Z</time>
      </trkpt>
      <trkpt lat="50.39836" lon="3.80199">
        <ele>162.4</ele>
        <time>2013-10-12T08:51:32.576Z</time>
      </trkpt>
      <trkpt lat="50.39833" lon="3.80193">
        <ele>162.3</ele>
        <time>2013-10-12T08:51:33.563Z</time>
      </trkpt>
      <trkpt lat="50.3983" lon="3.80188">
        <ele>162.2</ele>
        <time>2013-10-12T08:51:34.561Z</time>
      </trkpt>
      <trkpt lat="50.39824" lon="3.8018">
        <ele>161.7</ele>
        <time>2013-10-12T08:51:37.495Z</time>
      </trkpt>
      <trkpt lat="50.39822" lon="3.80177">
        <ele>161.7</ele>
        <time>2013-10-12T08:51:37.587Z</time>
      </trkpt>
      <trkpt lat="50.39818" lon="3.80168">
        <ele>161.8</ele>
        <time>2013-10-12T08:51:40.277Z</time>
      </trkpt>
      <trkpt lat="50.39817" lon="3.80165">
        <ele>161.4</ele>
        <time>2013-10-12T08:51:41.202Z</time>
      </trkpt>
      <trkpt lat="50.39814" lon="3.80153">
        <ele>160</ele>
        <time>2013-10-12T08:51:44.747Z</time>
      </trkpt>
      <trkpt lat="50.39813" lon="3.8015">
        <ele>160</ele>
        <time>2013-10-12T08:51:45.596Z</time>
      </trkpt>
      <trkpt lat="50.39813" lon="3.80139">
        <ele>158.9</ele>
        <time>2013-10-12T08:51:48.611Z</time>
      </trkpt>
      <trkpt lat="50.39814" lon="3.80135">
        <ele>158.7</ele>
        <time>2013-10-12T08:51:49.611Z</time>
      </trkpt>
      <trkpt lat="50.39818" lon="3.80124">
        <ele>159.4</ele>
        <time>2013-10-12T08:51:53.591Z</time>
      </trkpt>
      <trkpt lat="50.39819" lon="3.80123">
        <ele>159.2</ele>
        <time>2013-10-12T08:51:54.595Z</time>
      </trkpt>
      <trkpt lat="50.39818" lon="3.80112">
        <ele>160.1</ele>
        <time>2013-10-12T08:52:01.272Z</time>
      </trkpt>
      <trkpt lat="50.39815" lon="3.80109">
        <ele>159.5</ele>
        <time>2013-10-12T08:52:02.262Z</time>
      </trkpt>
      <trkpt lat="50.39809" lon="3.80104">
        <ele>159</ele>
        <time>2013-10-12T08:52:04.254Z</time>
      </trkpt>
      <trkpt lat="50.39806" lon="3.80102">
        <ele>158.6</ele>
        <time>2013-10-12T08:52:05.104Z</time>
      </trkpt>
      <trkpt lat="50.39799" lon="3.80095">
        <ele>158.5</ele>
        <time>2013-10-12T08:52:08.028Z</time>
      </trkpt>
      <trkpt lat="50.39796" lon="3.80092">
        <ele>158.7</ele>
        <time>2013-10-12T08:52:08.927Z</time>
      </trkpt>
      <trkpt lat="50.3979" lon="3.80082">
        <ele>158.2</ele>
        <time>2013-10-12T08:52:13.036Z</time>
      </trkpt>
      <trkpt lat="50.3979" lon="3.80079">
        <ele>158.5</ele>
        <time>2013-10-12T08:52:13.836Z</time>
      </trkpt>
      <trkpt lat="50.39785" lon="3.80068">
        <ele>159.6</ele>
        <time>2013-10-12T08:52:18.841Z</time>
      </trkpt>
      <trkpt lat="50.39784" lon="3.80066">
        <ele>159.2</ele>
        <time>2013-10-12T08:52:19.846Z</time>
      </trkpt>
      <trkpt lat="50.39778" lon="3.80056">
        <ele>158.7</ele>
        <time>2013-10-12T08:52:25.473Z</time>
      </trkpt>
      <trkpt lat="50.39777" lon="3.80055">
        <ele>158.7</ele>
        <time>2013-10-12T08:52:26.473Z</time>
      </trkpt>
      <trkpt lat="50.3977" lon="3.80049">
        <ele>158</ele>
        <time>2013-10-12T08:52:35.517Z</time>
      </trkpt>
      <trkpt lat="50.39769" lon="3.80047">
        <ele>158.1</ele>
        <time>2013-10-12T08:52:36.498Z</time>
      </trkpt>
      <trkpt lat="50.39767" lon="3.80043">
        <ele>158.2</ele>
        <time>2013-10-12T08:52:38.484Z</time>
      </trkpt>
      <trkpt lat="50.39757" lon="3.80022">
        <ele>158.7</ele>
        <time>2013-10-12T08:52:50.210Z</time>
      </trkpt>
      <trkpt lat="50.39759" lon="3.80009">
        <ele>153.8</ele>
        <time>2013-10-12T08:53:07.700Z</time>
      </trkpt>
      <trkpt lat="50.39759" lon="3.80008">
        <ele>154</ele>
        <time>2013-10-12T08:53:08.565Z</time>
      </trkpt>
      <trkpt lat="50.39761" lon="3.80009">
        <ele>154.7</ele>
        <time>2013-10-12T08:53:14.640Z</time>
      </trkpt>
      <trkpt lat="50.3976" lon="3.8001">
        <ele>152.4</ele>
        <time>2013-10-12T08:53:15.643Z</time>
      </trkpt>
      <trkpt lat="50.39758" lon="3.80009">
        <ele>152.9</ele>
        <time>2013-10-12T08:53:20.684Z</time>
      </trkpt>
      <trkpt lat="50.39757" lon="3.8001">
        <ele>153.1</ele>
        <time>2013-10-12T08:53:21.640Z</time>
      </trkpt>
      <trkpt lat="50.39758" lon="3.8001">
        <ele>152</ele>
        <time>2013-10-12T08:53:22.638Z</time>
      </trkpt>
      <trkpt lat="50.39758" lon="3.80011">
        <ele>152.1</ele>
        <time>2013-10-12T08:53:23.645Z</time>
      </trkpt>
      <trkpt lat="50.39758" lon="3.80011">
        <ele>152.6</ele>
        <time>2013-10-12T08:53:24.643Z</time>
      </trkpt>
      <trkpt lat="50.3976" lon="3.80016">
        <ele>151.2</ele>
        <time>2013-10-12T08:53:32.665Z</time>
      </trkpt>
      <trkpt lat="50.39759" lon="3.80016">
        <ele>151.2</ele>
        <time>2013-10-12T08:53:33.446Z</time>
      </trkpt>
      <trkpt lat="50.39758" lon="3.80015">
        <ele>152.4</ele>
        <time>2013-10-12T08:53:34.528Z</time>
      </trkpt>
      <trkpt lat="50.39758" lon="3.80014">
        <ele>152.6</ele>
        <time>2013-10-12T08:53:35.389Z</time>
      </trkpt>
      <trkpt lat="50.39752" lon="3.80003">
        <ele>153.6</ele>
        <time>2013-10-12T08:53:47.687Z</time>
      </trkpt>
      <trkpt lat="50.3975" lon="3.80003">
        <ele>152.8</ele>
        <time>2013-10-12T08:53:47.935Z</time>
      </trkpt>
      <trkpt lat="50.39742" lon="3.80007">
        <ele>152.6</ele>
        <time>2013-10-12T08:54:04.015Z</time>
      </trkpt>
      <trkpt lat="50.39741" lon="3.80008">
        <ele>152.6</ele>
        <time>2013-10-12T08:54:04.380Z</time>
      </trkpt>
      <trkpt lat="50.39741" lon="3.80021">
        <ele>153</ele>
        <time>2013-10-12T08:54:22.090Z</time>
      </trkpt>
      <trkpt lat="50.39738" lon="3.80022">
        <ele>152.7</ele>
        <time>2013-10-12T08:54:23.088Z</time>
      </trkpt>
      <trkpt lat="50.3973" lon="3.8002">
        <ele>152.8</ele>
        <time>2013-10-12T08:54:26.085Z</time>
      </trkpt>
      <trkpt lat="50.39727" lon="3.8002">
        <ele>152.9</ele>
        <time>2013-10-12T08:54:27.078Z</time>
      </trkpt>
      <trkpt lat="50.3972" lon="3.80023">
        <ele>153</ele>
        <time>2013-10-12T08:54:29.940Z</time>
      </trkpt>
      <trkpt lat="50.39718" lon="3.80023">
        <ele>153.2</ele>
        <time>2013-10-12T08:54:30.779Z</time>
      </trkpt>
      <trkpt lat="50.39718" lon="3.80023">
        <ele>152.7</ele>
        <time>2013-10-12T08:54:36.417Z</time>
      </trkpt>
      <trkpt lat="50.3972" lon="3.80023">
        <ele>152.8</ele>
        <time>2013-10-12T08:54:37.243Z</time>
      </trkpt>
      <trkpt lat="50.39722" lon="3.80023">
        <ele>152.7</ele>
        <time>2013-10-12T08:54:38.175Z</time>
      </trkpt>
      <trkpt lat="50.39729" lon="3.80015">
        <ele>153.5</ele>
        <time>2013-10-12T08:54:43.169Z</time>
      </trkpt>
      <trkpt lat="50.3973" lon="3.80012">
        <ele>153.8</ele>
        <time>2013-10-12T08:54:44.175Z</time>
      </trkpt>
      <trkpt lat="50.39726" lon="3.80004">
        <ele>155</ele>
        <time>2013-10-12T08:54:52.791Z</time>
      </trkpt>
      <trkpt lat="50.39726" lon="3.80006">
        <ele>153.9</ele>
        <time>2013-10-12T08:54:53.633Z</time>
      </trkpt>
      <trkpt lat="50.39726" lon="3.80007">
        <ele>153.4</ele>
        <time>2013-10-12T08:54:54.556Z</time>
      </trkpt>
      <trkpt lat="50.39726" lon="3.8001">
        <ele>151.7</ele>
        <time>2013-10-12T08:54:55.565Z</time>
      </trkpt>
      <trkpt lat="50.39726" lon="3.80016">
        <ele>152.2</ele>
        <time>2013-10-12T08:55:07.016Z</time>
      </trkpt>
      <trkpt lat="50.39726" lon="3.80016">
        <ele>151.8</ele>
        <time>2013-10-12T08:55:07.400Z</time>
      </trkpt>
      <trkpt lat="50.39727" lon="3.80017">
        <ele>151.2</ele>
        <time>2013-10-12T08:55:08.397Z</time>
      </trkpt>
      <trkpt lat="50.39727" lon="3.80017">
        <ele>152.1</ele>
        <time>2013-10-12T08:55:10.390Z</time>
      </trkpt>
      <trkpt lat="50.39727" lon="3.80017">
        <ele>151.7</ele>
        <time>2013-10-12T08:55:11.387Z</time>
      </trkpt>
      <trkpt lat="50.39726" lon="3.80018">
        <ele>152.2</ele>
        <time>2013-10-12T08:55:12.397Z</time>
      </trkpt>
      <trkpt lat="50.39726" lon="3.80018">
        <ele>152.1</ele>
        <time>2013-10-12T08:55:12.901Z</time>
      </trkpt>
      <trkpt lat="50.3973" lon="3.80011">
        <ele>153.3</ele>
        <time>2013-10-12T08:55:32.046Z</time>
      </trkpt>
      <trkpt lat="50.3973" lon="3.80012">
        <ele>153.2</ele>
        <time>2013-10-12T08:55:32.592Z</time>
      </trkpt>
      <trkpt lat="50.3973" lon="3.80013">
        <ele>153.1</ele>
        <time>2013-10-12T08:55:33.435Z</time>
      </trkpt>
      <trkpt lat="50.3973" lon="3.80013">
        <ele>153.1</ele>
        <time>2013-10-12T08:55:34.287Z</time>
      </trkpt>
      <trkpt lat="50.39729" lon="3.80015">
        <ele>153.6</ele>
        <time>2013-10-12T08:55:38.471Z</time>
      </trkpt>
      <trkpt lat="50.39729" lon="3.80015">
        <ele>153.4</ele>
        <time>2013-10-12T08:55:39.006Z</time>
      </trkpt>
      <trkpt lat="50.39728" lon="3.80017">
        <ele>155.2</ele>
        <time>2013-10-12T09:04:12.016Z</time>
      </trkpt>
      <trkpt lat="50.39727" lon="3.80019">
        <ele>154.8</ele>
        <time>2013-10-12T09:04:12.834Z</time>
      </trkpt>
      <trkpt lat="50.39723" lon="3.80026">
        <ele>153.3</ele>
        <time>2013-10-12T09:04:14.853Z</time>
      </trkpt>
      <trkpt lat="50.39719" lon="3.80031">
        <ele>151.3</ele>
        <time>2013-10-12T09:04:15.850Z</time>
      </trkpt>
      <trkpt lat="50.39716" lon="3.80037">
        <ele>151.6</ele>
        <time>2013-10-12T09:04:16.853Z</time>
      </trkpt>
      <trkpt lat="50.39712" lon="3.80042">
        <ele>153.3</ele>
        <time>2013-10-12T09:04:17.852Z</time>
      </trkpt>
      <trkpt lat="50.39708" lon="3.80047">
        <ele>152.8</ele>
        <time>2013-10-12T09:04:19.807Z</time>
      </trkpt>
      <trkpt lat="50.397" lon="3.80058">
        <ele>148</ele>
        <time>2013-10-12T09:04:19.839Z</time>
      </trkpt>
      <trkpt lat="50.39691" lon="3.80073">
        <ele>142.9</ele>
        <time>2013-10-12T09:04:20.849Z</time>
      </trkpt>
      <trkpt lat="50.39679" lon="3.80087">
        <ele>139</ele>
        <time>2013-10-12T09:04:21.853Z</time>
      </trkpt>
      <trkpt lat="50.3967" lon="3.80099">
        <ele>138</ele>
        <time>2013-10-12T09:04:22.856Z</time>
      </trkpt>
      <trkpt lat="50.39662" lon="3.80109">
        <ele>137.9</ele>
        <time>2013-10-12T09:04:23.859Z</time>
      </trkpt>
      <trkpt lat="50.39656" lon="3.80117">
        <ele>137.8</ele>
        <time>2013-10-12T09:04:24.876Z</time>
      </trkpt>
      <trkpt lat="50.39651" lon="3.80122">
        <ele>137.9</ele>
        <time>2013-10-12T09:04:25.875Z</time>
      </trkpt>
      <trkpt lat="50.39645" lon="3.80126">
        <ele>136.6</ele>
        <time>2013-10-12T09:04:27.565Z</time>
      </trkpt>
      <trkpt lat="50.39641" lon="3.80128">
        <ele>137</ele>
        <time>2013-10-12T09:04:28.566Z</time>
      </trkpt>
      <trkpt lat="50.39632" lon="3.80132">
        <ele>133.8</ele>
        <time>2013-10-12T09:04:32.047Z</time>
      </trkpt>
      <trkpt lat="50.39631" lon="3.80133">
        <ele>133.9</ele>
        <time>2013-10-12T09:04:32.904Z</time>
      </trkpt>
      <trkpt lat="50.39623" lon="3.80137">
        <ele>135.1</ele>
        <time>2013-10-12T09:04:51.252Z</time>
      </trkpt>
      <trkpt lat="50.39622" lon="3.80138">
        <ele>134.2</ele>
        <time>2013-10-12T09:04:52.109Z</time>
      </trkpt>
      <trkpt lat="50.39616" lon="3.80146">
        <ele>134.4</ele>
        <time>2013-10-12T09:04:56.046Z</time>
      </trkpt>
      <trkpt lat="50.39614" lon="3.80148">
        <ele>134.1</ele>
        <time>2013-10-12T09:04:56.700Z</time>
      </trkpt>
      <trkpt lat="50.39608" lon="3.80155">
        <ele>130.2</ele>
        <time>2013-10-12T09:05:06.711Z</time>
      </trkpt>
      <trkpt lat="50.39606" lon="3.80155">
        <ele>131</ele>
        <time>2013-10-12T09:05:07.541Z</time>
      </trkpt>
      <trkpt lat="50.396" lon="3.80163">
        <ele>132.1</ele>
        <time>2013-10-12T09:05:16.635Z</time>
      </trkpt>
      <trkpt lat="50.39599" lon="3.80164">
        <ele>132.1</ele>
        <time>2013-10-12T09:05:17.629Z</time>
      </trkpt>
      <trkpt lat="50.39593" lon="3.80173">
        <ele>131.7</ele>
        <time>2013-10-12T09:05:33.327Z</time>
      </trkpt>
      <trkpt lat="50.39593" lon="3.80175">
        <ele>131.7</ele>
        <time>2013-10-12T09:05:33.402Z</time>
      </trkpt>
      <trkpt lat="50.39585" lon="3.80177">
        <ele>132.7</ele>
        <time>2013-10-12T09:05:42.057Z</time>
      </trkpt>
      <trkpt lat="50.39584" lon="3.80178">
        <ele>132.5</ele>
        <time>2013-10-12T09:05:43.055Z</time>
      </trkpt>
      <trkpt lat="50.39584" lon="3.80192">
        <ele>133</ele>
        <time>2013-10-12T09:05:48.333Z</time>
      </trkpt>
      <trkpt lat="50.39584" lon="3.80195">
        <ele>132.8</ele>
        <time>2013-10-12T09:05:49.066Z</time>
      </trkpt>
      <trkpt lat="50.3959" lon="3.80204">
        <ele>132.7</ele>
        <time>2013-10-12T09:05:53.340Z</time>
      </trkpt>
      <trkpt lat="50.39591" lon="3.80205">
        <ele>132.8</ele>
        <time>2013-10-12T09:05:53.900Z</time>
      </trkpt>
      <trkpt lat="50.39585" lon="3.80208">
        <ele>133.4</ele>
        <time>2013-10-12T09:06:04.233Z</time>
      </trkpt>
      <trkpt lat="50.39582" lon="3.8021">
        <ele>132.6</ele>
        <time>2013-10-12T09:06:05.231Z</time>
      </trkpt>
      <trkpt lat="50.39574" lon="3.80213">
        <ele>133.6</ele>
        <time>2013-10-12T09:06:08.401Z</time>
      </trkpt>
      <trkpt lat="50.39572" lon="3.80214">
        <ele>133.3</ele>
        <time>2013-10-12T09:06:09.233Z</time>
      </trkpt>
      <trkpt lat="50.39564" lon="3.80221">
        <ele>130.2</ele>
        <time>2013-10-12T09:06:19.734Z</time>
      </trkpt>
      <trkpt lat="50.39564" lon="3.80221">
        <ele>130.3</ele>
        <time>2013-10-12T09:06:20.726Z</time>
      </trkpt>
      <trkpt lat="50.39557" lon="3.80212">
        <ele>127.5</ele>
        <time>2013-10-12T09:06:37.683Z</time>
      </trkpt>
      <trkpt lat="50.39556" lon="3.80213">
        <ele>127.4</ele>
        <time>2013-10-12T09:06:38.514Z</time>
      </trkpt>
      <trkpt lat="50.39551" lon="3.80221">
        <ele>127.1</ele>
        <time>2013-10-12T09:06:49.016Z</time>
      </trkpt>
      <trkpt lat="50.39548" lon="3.80224">
        <ele>127.1</ele>
        <time>2013-10-12T09:06:49.249Z</time>
      </trkpt>
      <trkpt lat="50.3954" lon="3.80229">
        <ele>127</ele>
        <time>2013-10-12T09:06:54.022Z</time>
      </trkpt>
      <trkpt lat="50.39536" lon="3.80232">
        <ele>127.3</ele>
        <time>2013-10-12T09:06:54.240Z</time>
      </trkpt>
      <trkpt lat="50.3953" lon="3.80242">
        <ele>128.6</ele>
        <time>2013-10-12T09:07:05.666Z</time>
      </trkpt>
      <trkpt lat="50.3953" lon="3.80243">
        <ele>128.3</ele>
        <time>2013-10-12T09:07:06.515Z</time>
      </trkpt>
      <trkpt lat="50.39531" lon="3.80257">
        <ele>128.8</ele>
        <time>2013-10-12T09:07:14.045Z</time>
      </trkpt>
      <trkpt lat="50.39532" lon="3.80259">
        <ele>128.8</ele>
        <time>2013-10-12T09:07:14.513Z</time>
      </trkpt>
      <trkpt lat="50.3953" lon="3.80272">
        <ele>124.9</ele>
        <time>2013-10-12T09:07:27.534Z</time>
      </trkpt>
      <trkpt lat="50.39529" lon="3.80273">
        <ele>125.1</ele>
        <time>2013-10-12T09:07:28.540Z</time>
      </trkpt>
      <trkpt lat="50.39524" lon="3.80282">
        <ele>124.1</ele>
        <time>2013-10-12T09:07:32.547Z</time>
      </trkpt>
      <trkpt lat="50.39523" lon="3.80283">
        <ele>124.3</ele>
        <time>2013-10-12T09:07:33.530Z</time>
      </trkpt>
      <trkpt lat="50.39525" lon="3.80296">
        <ele>126.4</ele>
        <time>2013-10-12T09:07:46.277Z</time>
      </trkpt>
      <trkpt lat="50.39525" lon="3.80297">
        <ele>126.5</ele>
        <time>2013-10-12T09:07:47.205Z</time>
      </trkpt>
      <trkpt lat="50.39523" lon="3.8031">
        <ele>129.4</ele>
        <time>2013-10-12T09:08:01.722Z</time>
      </trkpt>
      <trkpt lat="50.39522" lon="3.80312">
        <ele>129.2</ele>
        <time>2013-10-12T09:08:02.571Z</time>
      </trkpt>
      <trkpt lat="50.39518" lon="3.80317">
        <ele>130.2</ele>
        <time>2013-10-12T09:08:12.258Z</time>
      </trkpt>
      <trkpt lat="50.39519" lon="3.80316">
        <ele>129.2</ele>
        <time>2013-10-12T09:08:13.257Z</time>
      </trkpt>
      <trkpt lat="50.39519" lon="3.80314">
        <ele>128.2</ele>
        <time>2013-10-12T09:08:14.258Z</time>
      </trkpt>
      <trkpt lat="50.39528" lon="3.80315">
        <ele>130.3</ele>
        <time>2013-10-12T09:08:29.021Z</time>
      </trkpt>
      <trkpt lat="50.39528" lon="3.80315">
        <ele>130.2</ele>
        <time>2013-10-12T09:08:30.020Z</time>
      </trkpt>
      <trkpt lat="50.39521" lon="3.80315">
        <ele>133.3</ele>
        <time>2013-10-12T09:08:49.123Z</time>
      </trkpt>
      <trkpt lat="50.39521" lon="3.80315">
        <ele>133.3</ele>
        <time>2013-10-12T09:08:50.130Z</time>
      </trkpt>
      <trkpt lat="50.39521" lon="3.80315">
        <ele>133.3</ele>
        <time>2013-10-12T09:08:51.127Z</time>
      </trkpt>
      <trkpt lat="50.39516" lon="3.80317">
        <ele>133.7</ele>
        <time>2013-10-12T09:09:07.139Z</time>
      </trkpt>
      <trkpt lat="50.39516" lon="3.80317">
        <ele>133.7</ele>
        <time>2013-10-12T09:09:08.146Z</time>
      </trkpt>
      <trkpt lat="50.39517" lon="3.80316">
        <ele>134</ele>
        <time>2013-10-12T09:09:11.144Z</time>
      </trkpt>
      <trkpt lat="50.39517" lon="3.80317">
        <ele>134.1</ele>
        <time>2013-10-12T09:09:12.145Z</time>
      </trkpt>
      <trkpt lat="50.39513" lon="3.80327">
        <ele>135.9</ele>
        <time>2013-10-12T09:09:23.211Z</time>
      </trkpt>
      <trkpt lat="50.39512" lon="3.80329">
        <ele>135.8</ele>
        <time>2013-10-12T09:09:24.216Z</time>
      </trkpt>
      <trkpt lat="50.39514" lon="3.80316">
        <ele>137.9</ele>
        <time>2013-10-12T09:09:36.893Z</time>
      </trkpt>
      <trkpt lat="50.39514" lon="3.80315">
        <ele>138.1</ele>
        <time>2013-10-12T09:09:37.896Z</time>
      </trkpt>
      <trkpt lat="50.39509" lon="3.80325">
        <ele>138.7</ele>
        <time>2013-10-12T09:09:47.372Z</time>
      </trkpt>
      <trkpt lat="50.39508" lon="3.80327">
        <ele>139.4</ele>
        <time>2013-10-12T09:09:48.258Z</time>
      </trkpt>
      <trkpt lat="50.39505" lon="3.80329">
        <ele>139.8</ele>
        <time>2013-10-12T09:09:59.454Z</time>
      </trkpt>
      <trkpt lat="50.39505" lon="3.8033">
        <ele>139.8</ele>
        <time>2013-10-12T09:10:00.459Z</time>
      </trkpt>
      <trkpt lat="50.39506" lon="3.8033">
        <ele>139.9</ele>
        <time>2013-10-12T09:10:02.459Z</time>
      </trkpt>
      <trkpt lat="50.39506" lon="3.80331">
        <ele>139.9</ele>
        <time>2013-10-12T09:10:03.308Z</time>
      </trkpt>
      <trkpt lat="50.39503" lon="3.80323">
        <ele>141.1</ele>
        <time>2013-10-12T09:10:31.677Z</time>
      </trkpt>
      <trkpt lat="50.39506" lon="3.80324">
        <ele>141.4</ele>
        <time>2013-10-12T09:10:32.691Z</time>
      </trkpt>
      <trkpt lat="50.39508" lon="3.80325">
        <ele>141.4</ele>
        <time>2013-10-12T09:10:33.705Z</time>
      </trkpt>
      <trkpt lat="50.39517" lon="3.80328">
        <ele>141.4</ele>
        <time>2013-10-12T09:10:41.511Z</time>
      </trkpt>
      <trkpt lat="50.39517" lon="3.80328">
        <ele>141.4</ele>
        <time>2013-10-12T09:10:42.513Z</time>
      </trkpt>
      <trkpt lat="50.39516" lon="3.80326">
        <ele>141.2</ele>
        <time>2013-10-12T09:10:47.803Z</time>
      </trkpt>
      <trkpt lat="50.39515" lon="3.80326">
        <ele>141.2</ele>
        <time>2013-10-12T09:10:48.821Z</time>
      </trkpt>
      <trkpt lat="50.39514" lon="3.80325">
        <ele>143.8</ele>
        <time>2013-10-12T09:11:06.375Z</time>
      </trkpt>
      <trkpt lat="50.39513" lon="3.80326">
        <ele>143.7</ele>
        <time>2013-10-12T09:11:07.453Z</time>
      </trkpt>
      <trkpt lat="50.39522" lon="3.80325">
        <ele>142.2</ele>
        <time>2013-10-12T09:11:16.327Z</time>
      </trkpt>
      <trkpt lat="50.39523" lon="3.80325">
        <ele>142.1</ele>
        <time>2013-10-12T09:11:17.176Z</time>
      </trkpt>
      <trkpt lat="50.39517" lon="3.80332">
        <ele>141.7</ele>
        <time>2013-10-12T09:11:23.024Z</time>
      </trkpt>
      <trkpt lat="50.39515" lon="3.80332">
        <ele>141.6</ele>
        <time>2013-10-12T09:11:24.035Z</time>
      </trkpt>
      <trkpt lat="50.39507" lon="3.80329">
        <ele>141.8</ele>
        <time>2013-10-12T09:11:45.162Z</time>
      </trkpt>
      <trkpt lat="50.39506" lon="3.8033">
        <ele>141.9</ele>
        <time>2013-10-12T09:11:46.166Z</time>
      </trkpt>
      <trkpt lat="50.39506" lon="3.80332">
        <ele>142.4</ele>
        <time>2013-10-12T09:11:52.790Z</time>
      </trkpt>
      <trkpt lat="50.39506" lon="3.80332">
        <ele>142.3</ele>
        <time>2013-10-12T09:11:53.793Z</time>
      </trkpt>
      <trkpt lat="50.39505" lon="3.80333">
        <ele>142.4</ele>
        <time>2013-10-12T09:11:59.576Z</time>
      </trkpt>
      <trkpt lat="50.39505" lon="3.80334">
        <ele>142.7</ele>
        <time>2013-10-12T09:12:00.602Z</time>
      </trkpt>
      <trkpt lat="50.39505" lon="3.80332">
        <ele>146.3</ele>
        <time>2013-10-12T09:12:01.585Z</time>
      </trkpt>
      <trkpt lat="50.39506" lon="3.80329">
        <ele>146.1</ele>
        <time>2013-10-12T09:12:05.412Z</time>
      </trkpt>
      <trkpt lat="50.39513" lon="3.80322">
        <ele>147.8</ele>
        <time>2013-10-12T09:12:17.598Z</time>
      </trkpt>
      <trkpt lat="50.39514" lon="3.80336">
        <ele>146.8</ele>
        <time>2013-10-12T09:12:35.896Z</time>
      </trkpt>
      <trkpt lat="50.39515" lon="3.80336">
        <ele>146.8</ele>
        <time>2013-10-12T09:12:36.896Z</time>
      </trkpt>
      <trkpt lat="50.39515" lon="3.80335">
        <ele>146.9</ele>
        <time>2013-10-12T09:12:39.893Z</time>
      </trkpt>
      <trkpt lat="50.39515" lon="3.80334">
        <ele>147</ele>
        <time>2013-10-12T09:12:40.896Z</time>
      </trkpt>
      <trkpt lat="50.39516" lon="3.80333">
        <ele>147.6</ele>
        <time>2013-10-12T09:12:48.850Z</time>
      </trkpt>
      <trkpt lat="50.39517" lon="3.80333">
        <ele>147.5</ele>
        <time>2013-10-12T09:12:49.695Z</time>
      </trkpt>
      <trkpt lat="50.39517" lon="3.80331">
        <ele>147.4</ele>
        <time>2013-10-12T09:12:52.327Z</time>
      </trkpt>
      <trkpt lat="50.39517" lon="3.80331">
        <ele>147.7</ele>
        <time>2013-10-12T09:12:53.326Z</time>
      </trkpt>
      <trkpt lat="50.39517" lon="3.8033">
        <ele>147.7</ele>
        <time>2013-10-12T09:12:56.725Z</time>
      </trkpt>
      <trkpt lat="50.39518" lon="3.8033">
        <ele>147.6</ele>
        <time>2013-10-12T09:12:57.729Z</time>
      </trkpt>
      <trkpt lat="50.39523" lon="3.80321">
        <ele>146.9</ele>
        <time>2013-10-12T09:13:04.719Z</time>
      </trkpt>
      <trkpt lat="50.39523" lon="3.80318">
        <ele>146.9</ele>
        <time>2013-10-12T09:13:05.722Z</time>
      </trkpt>
      <trkpt lat="50.39522" lon="3.8033">
        <ele>145.5</ele>
        <time>2013-10-12T09:13:10.730Z</time>
      </trkpt>
      <trkpt lat="50.39522" lon="3.80333">
        <ele>145.9</ele>
        <time>2013-10-12T09:13:11.729Z</time>
      </trkpt>
      <trkpt lat="50.39521" lon="3.80346">
        <ele>145.5</ele>
        <time>2013-10-12T09:13:14.753Z</time>
      </trkpt>
      <trkpt lat="50.3952" lon="3.8035">
        <ele>145.6</ele>
        <time>2013-10-12T09:13:15.656Z</time>
      </trkpt>
      <trkpt lat="50.39516" lon="3.80361">
        <ele>145.8</ele>
        <time>2013-10-12T09:13:21.533Z</time>
      </trkpt>
      <trkpt lat="50.39515" lon="3.80362">
        <ele>145.8</ele>
        <time>2013-10-12T09:13:22.509Z</time>
      </trkpt>
      <trkpt lat="50.39523" lon="3.80365">
        <ele>149.1</ele>
        <time>2013-10-12T09:13:51.196Z</time>
      </trkpt>
      <trkpt lat="50.39525" lon="3.80362">
        <ele>148.4</ele>
        <time>2013-10-12T09:13:51.997Z</time>
      </trkpt>
      <trkpt lat="50.39531" lon="3.80352">
        <ele>147.5</ele>
        <time>2013-10-12T09:13:54.604Z</time>
      </trkpt>
      <trkpt lat="50.39533" lon="3.8035">
        <ele>147.3</ele>
        <time>2013-10-12T09:13:55.623Z</time>
      </trkpt>
      <trkpt lat="50.39539" lon="3.80341">
        <ele>146.5</ele>
        <time>2013-10-12T09:13:59.615Z</time>
      </trkpt>
      <trkpt lat="50.3954" lon="3.80338">
        <ele>146.4</ele>
        <time>2013-10-12T09:14:00.622Z</time>
      </trkpt>
      <trkpt lat="50.39532" lon="3.80337">
        <ele>145.5</ele>
        <time>2013-10-12T09:14:15.993Z</time>
      </trkpt>
      <trkpt lat="50.3953" lon="3.80338">
        <ele>145.2</ele>
        <time>2013-10-12T09:14:16.448Z</time>
      </trkpt>
      <trkpt lat="50.39523" lon="3.80345">
        <ele>146.3</ele>
        <time>2013-10-12T09:14:19.459Z</time>
      </trkpt>
      <trkpt lat="50.39521" lon="3.80346">
        <ele>146.9</ele>
        <time>2013-10-12T09:14:20.436Z</time>
      </trkpt>
      <trkpt lat="50.39513" lon="3.80347">
        <ele>148</ele>
        <time>2013-10-12T09:14:27.435Z</time>
      </trkpt>
      <trkpt lat="50.39511" lon="3.80348">
        <ele>147.6</ele>
        <time>2013-10-12T09:14:28.442Z</time>
      </trkpt>
      <trkpt lat="50.39506" lon="3.80337">
        <ele>147</ele>
        <time>2013-10-12T09:14:40.158Z</time>
      </trkpt>
      <trkpt lat="50.39505" lon="3.80336">
        <ele>147</ele>
        <time>2013-10-12T09:14:41.158Z</time>
      </trkpt>
      <trkpt lat="50.39514" lon="3.80334">
        <ele>144.7</ele>
        <time>2013-10-12T09:14:56.467Z</time>
      </trkpt>
      <trkpt lat="50.39515" lon="3.80333">
        <ele>144.5</ele>
        <time>2013-10-12T09:14:57.468Z</time>
      </trkpt>
      <trkpt lat="50.3952" lon="3.80325">
        <ele>145.5</ele>
        <time>2013-10-12T09:15:09.509Z</time>
      </trkpt>
      <trkpt lat="50.39519" lon="3.80325">
        <ele>144.9</ele>
        <time>2013-10-12T09:15:10.508Z</time>
      </trkpt>
      <trkpt lat="50.39519" lon="3.80325">
        <ele>144.9</ele>
        <time>2013-10-12T09:15:14.027Z</time>
      </trkpt>
      <trkpt lat="50.39516" lon="3.80324">
        <ele>144.9</ele>
        <time>2013-10-12T09:15:14.551Z</time>
      </trkpt>
      <trkpt lat="50.39508" lon="3.80321">
        <ele>145.1</ele>
        <time>2013-10-12T09:15:19.022Z</time>
      </trkpt>
      <trkpt lat="50.39507" lon="3.8032">
        <ele>145.1</ele>
        <time>2013-10-12T09:15:19.617Z</time>
      </trkpt>
      <trkpt lat="50.39508" lon="3.80319">
        <ele>146.4</ele>
        <time>2013-10-12T09:15:25.915Z</time>
      </trkpt>
      <trkpt lat="50.39509" lon="3.8032">
        <ele>146.3</ele>
        <time>2013-10-12T09:15:26.761Z</time>
      </trkpt>
      <trkpt lat="50.39509" lon="3.80322">
        <ele>142.8</ele>
        <time>2013-10-12T09:15:29.034Z</time>
      </trkpt>
      <trkpt lat="50.39508" lon="3.80325">
        <ele>140.4</ele>
        <time>2013-10-12T09:15:29.700Z</time>
      </trkpt>
      <trkpt lat="50.39512" lon="3.80337">
        <ele>148.2</ele>
        <time>2013-10-12T09:15:44.109Z</time>
      </trkpt>
      <trkpt lat="50.39511" lon="3.80339">
        <ele>148.9</ele>
        <time>2013-10-12T09:15:45.038Z</time>
      </trkpt>
      <trkpt lat="50.39508" lon="3.80344">
        <ele>148.1</ele>
        <time>2013-10-12T09:15:54.049Z</time>
      </trkpt>
      <trkpt lat="50.39508" lon="3.80344">
        <ele>148.1</ele>
        <time>2013-10-12T09:15:54.902Z</time>
      </trkpt>
      <trkpt lat="50.39507" lon="3.80339">
        <ele>150.5</ele>
        <time>2013-10-12T09:21:48.688Z</time>
      </trkpt>
      <trkpt lat="50.39506" lon="3.80339">
        <ele>152.2</ele>
        <time>2013-10-12T09:21:49.636Z</time>
      </trkpt>
      <trkpt lat="50.39499" lon="3.80335">
        <ele>153.8</ele>
        <time>2013-10-12T09:21:53.707Z</time>
      </trkpt>
      <trkpt lat="50.39497" lon="3.80334">
        <ele>154.1</ele>
        <time>2013-10-12T09:21:53.995Z</time>
      </trkpt>
      <trkpt lat="50.39489" lon="3.80328">
        <ele>156.2</ele>
        <time>2013-10-12T09:21:56.750Z</time>
      </trkpt>
      <trkpt lat="50.39487" lon="3.80327">
        <ele>156.3</ele>
        <time>2013-10-12T09:21:57.801Z</time>
      </trkpt>
      <trkpt lat="50.39479" lon="3.80335">
        <ele>158.9</ele>
        <time>2013-10-12T09:22:10.961Z</time>
      </trkpt>
      <trkpt lat="50.39479" lon="3.80335">
        <ele>159.2</ele>
        <time>2013-10-12T09:22:11.640Z</time>
      </trkpt>
      <trkpt lat="50.39479" lon="3.80334">
        <ele>158.9</ele>
        <time>2013-10-12T09:22:12.635Z</time>
      </trkpt>
      <trkpt lat="50.39479" lon="3.80334">
        <ele>159.1</ele>
        <time>2013-10-12T09:22:13.516Z</time>
      </trkpt>
      <trkpt lat="50.39479" lon="3.80335">
        <ele>159.2</ele>
        <time>2013-10-12T09:24:04.580Z</time>
      </trkpt>
      <trkpt lat="50.39476" lon="3.80334">
        <ele>159.8</ele>
        <time>2013-10-12T09:24:05.414Z</time>
      </trkpt>
      <trkpt lat="50.39468" lon="3.80337">
        <ele>159.6</ele>
        <time>2013-10-12T09:24:07.356Z</time>
      </trkpt>
      <trkpt lat="50.39465" lon="3.8034">
        <ele>159.8</ele>
        <time>2013-10-12T09:24:08.212Z</time>
      </trkpt>
      <trkpt lat="50.39458" lon="3.80346">
        <ele>159.1</ele>
        <time>2013-10-12T09:24:10.766Z</time>
      </trkpt>
      <trkpt lat="50.39455" lon="3.80349">
        <ele>159.9</ele>
        <time>2013-10-12T09:24:10.948Z</time>
      </trkpt>
      <trkpt lat="50.39448" lon="3.80356">
        <ele>159.1</ele>
        <time>2013-10-12T09:24:15.966Z</time>
      </trkpt>
      <trkpt lat="50.39447" lon="3.80357">
        <ele>159.3</ele>
        <time>2013-10-12T09:24:15.997Z</time>
      </trkpt>
      <trkpt lat="50.39439" lon="3.80362">
        <ele>157.9</ele>
        <time>2013-10-12T09:24:32.819Z</time>
      </trkpt>
      <trkpt lat="50.39438" lon="3.80362">
        <ele>157.4</ele>
        <time>2013-10-12T09:24:33.823Z</time>
      </trkpt>
      <trkpt lat="50.3943" lon="3.80363">
        <ele>157.1</ele>
        <time>2013-10-12T09:24:38.585Z</time>
      </trkpt>
      <trkpt lat="50.39428" lon="3.80362">
        <ele>157</ele>
        <time>2013-10-12T09:24:39.422Z</time>
      </trkpt>
      <trkpt lat="50.3942" lon="3.80367">
        <ele>155.9</ele>
        <time>2013-10-12T09:24:57.520Z</time>
      </trkpt>
      <trkpt lat="50.39419" lon="3.80367">
        <ele>156</ele>
        <time>2013-10-12T09:24:58.521Z</time>
      </trkpt>
      <trkpt lat="50.39412" lon="3.80371">
        <ele>155.2</ele>
        <time>2013-10-12T09:25:11.081Z</time>
      </trkpt>
      <trkpt lat="50.39411" lon="3.80374">
        <ele>154</ele>
        <time>2013-10-12T09:25:11.520Z</time>
      </trkpt>
      <trkpt lat="50.39406" lon="3.80371">
        <ele>152.4</ele>
        <time>2013-10-12T09:25:23.846Z</time>
      </trkpt>
      <trkpt lat="50.39406" lon="3.80371">
        <ele>152.4</ele>
        <time>2013-10-12T09:25:24.102Z</time>
      </trkpt>
      <trkpt lat="50.39406" lon="3.80371">
        <ele>152.4</ele>
        <time>2013-10-12T09:25:24.930Z</time>
      </trkpt>
      <trkpt lat="50.39407" lon="3.80373">
        <ele>152.5</ele>
        <time>2013-10-12T09:25:25.787Z</time>
      </trkpt>
      <trkpt lat="50.39413" lon="3.80381">
        <ele>152</ele>
        <time>2013-10-12T09:25:36.255Z</time>
      </trkpt>
      <trkpt lat="50.39414" lon="3.80382">
        <ele>152.1</ele>
        <time>2013-10-12T09:25:37.254Z</time>
      </trkpt>
      <trkpt lat="50.39419" lon="3.80393">
        <ele>153</ele>
        <time>2013-10-12T09:25:44.409Z</time>
      </trkpt>
      <trkpt lat="50.39418" lon="3.80395">
        <ele>152.7</ele>
        <time>2013-10-12T09:25:45.274Z</time>
      </trkpt>
      <trkpt lat="50.39413" lon="3.80405">
        <ele>152.4</ele>
        <time>2013-10-12T09:25:52.437Z</time>
      </trkpt>
      <trkpt lat="50.39412" lon="3.80409">
        <ele>151.7</ele>
        <time>2013-10-12T09:25:53.444Z</time>
      </trkpt>
      <trkpt lat="50.39411" lon="3.80422">
        <ele>151.6</ele>
        <time>2013-10-12T09:25:57.438Z</time>
      </trkpt>
      <trkpt lat="50.3941" lon="3.80427">
        <ele>151.6</ele>
        <time>2013-10-12T09:25:58.449Z</time>
      </trkpt>
      <trkpt lat="50.39406" lon="3.80439">
        <ele>152.1</ele>
        <time>2013-10-12T09:26:03.427Z</time>
      </trkpt>
      <trkpt lat="50.39405" lon="3.80441">
        <ele>152.3</ele>
        <time>2013-10-12T09:26:04.431Z</time>
      </trkpt>
      <trkpt lat="50.39412" lon="3.80448">
        <ele>152</ele>
        <time>2013-10-12T09:26:22.131Z</time>
      </trkpt>
      <trkpt lat="50.39412" lon="3.8045">
        <ele>151.3</ele>
        <time>2013-10-12T09:26:23.125Z</time>
      </trkpt>
      <trkpt lat="50.39416" lon="3.80461">
        <ele>151.5</ele>
        <time>2013-10-12T09:26:33.610Z</time>
      </trkpt>
      <trkpt lat="50.39417" lon="3.80462">
        <ele>151.6</ele>
        <time>2013-10-12T09:26:33.836Z</time>
      </trkpt>
      <trkpt lat="50.39426" lon="3.80461">
        <ele>150.8</ele>
        <time>2013-10-12T09:26:38.614Z</time>
      </trkpt>
      <trkpt lat="50.39427" lon="3.80461">
        <ele>150.8</ele>
        <time>2013-10-12T09:26:39.183Z</time>
      </trkpt>
      <trkpt lat="50.39426" lon="3.80474">
        <ele>152.6</ele>
        <time>2013-10-12T09:26:50.711Z</time>
      </trkpt>
      <trkpt lat="50.39424" lon="3.80477">
        <ele>152.7</ele>
        <time>2013-10-12T09:26:51.562Z</time>
      </trkpt>
      <trkpt lat="50.39418" lon="3.80485">
        <ele>153.6</ele>
        <time>2013-10-12T09:26:59.024Z</time>
      </trkpt>
      <trkpt lat="50.39417" lon="3.80486">
        <ele>154</ele>
        <time>2013-10-12T09:26:59.593Z</time>
      </trkpt>
      <trkpt lat="50.39424" lon="3.80493">
        <ele>150.3</ele>
        <time>2013-10-12T09:27:19.122Z</time>
      </trkpt>
      <trkpt lat="50.39425" lon="3.80493">
        <ele>150.2</ele>
        <time>2013-10-12T09:27:19.691Z</time>
      </trkpt>
      <trkpt lat="50.39426" lon="3.80495">
        <ele>150.7</ele>
        <time>2013-10-12T09:27:21.512Z</time>
      </trkpt>
      <trkpt lat="50.39423" lon="3.8051">
        <ele>151.3</ele>
        <time>2013-10-12T09:27:31.396Z</time>
      </trkpt>
      <trkpt lat="50.39419" lon="3.80519">
        <ele>152.4</ele>
        <time>2013-10-12T09:27:36.532Z</time>
      </trkpt>
      <trkpt lat="50.39418" lon="3.80522">
        <ele>151.9</ele>
        <time>2013-10-12T09:27:36.758Z</time>
      </trkpt>
      <trkpt lat="50.39418" lon="3.80536">
        <ele>152.1</ele>
        <time>2013-10-12T09:27:47.184Z</time>
      </trkpt>
      <trkpt lat="50.39418" lon="3.80537">
        <ele>151.7</ele>
        <time>2013-10-12T09:27:48.189Z</time>
      </trkpt>
      <trkpt lat="50.3942" lon="3.80546">
        <ele>152.4</ele>
        <time>2013-10-12T09:27:57.046Z</time>
      </trkpt>
      <trkpt lat="50.3942" lon="3.8055">
        <ele>152.3</ele>
        <time>2013-10-12T09:28:00.402Z</time>
      </trkpt>
      <trkpt lat="50.39419" lon="3.80563">
        <ele>151.9</ele>
        <time>2013-10-12T09:28:08.418Z</time>
      </trkpt>
      <trkpt lat="50.39417" lon="3.80566">
        <ele>151.3</ele>
        <time>2013-10-12T09:28:09.390Z</time>
      </trkpt>
      <trkpt lat="50.39422" lon="3.80577">
        <ele>152.8</ele>
        <time>2013-10-12T09:28:19.790Z</time>
      </trkpt>
      <trkpt lat="50.39423" lon="3.80578">
        <ele>152.4</ele>
        <time>2013-10-12T09:28:20.725Z</time>
      </trkpt>
      <trkpt lat="50.39423" lon="3.80585">
        <ele>152.7</ele>
        <time>2013-10-12T09:28:34.437Z</time>
      </trkpt>
      <trkpt lat="50.39424" lon="3.80585">
        <ele>153.5</ele>
        <time>2013-10-12T09:28:35.412Z</time>
      </trkpt>
      <trkpt lat="50.39424" lon="3.80586">
        <ele>153.7</ele>
        <time>2013-10-12T09:28:36.421Z</time>
      </trkpt>
      <trkpt lat="50.39426" lon="3.80599">
        <ele>156.7</ele>
        <time>2013-10-12T09:28:44.557Z</time>
      </trkpt>
      <trkpt lat="50.39427" lon="3.806">
        <ele>156.1</ele>
        <time>2013-10-12T09:28:45.118Z</time>
      </trkpt>
      <trkpt lat="50.39421" lon="3.80605">
        <ele>157.4</ele>
        <time>2013-10-12T09:29:01.026Z</time>
      </trkpt>
      <trkpt lat="50.39422" lon="3.80604">
        <ele>157.4</ele>
        <time>2013-10-12T09:29:01.347Z</time>
      </trkpt>
      <trkpt lat="50.39422" lon="3.80604">
        <ele>157.4</ele>
        <time>2013-10-12T09:29:02.198Z</time>
      </trkpt>
      <trkpt lat="50.39423" lon="3.80604">
        <ele>157.7</ele>
        <time>2013-10-12T09:29:03.021Z</time>
      </trkpt>
      <trkpt lat="50.3943" lon="3.80611">
        <ele>158.3</ele>
        <time>2013-10-12T09:29:09.958Z</time>
      </trkpt>
      <trkpt lat="50.39431" lon="3.80612">
        <ele>157.9</ele>
        <time>2013-10-12T09:29:10.954Z</time>
      </trkpt>
      <trkpt lat="50.39431" lon="3.80625">
        <ele>158.2</ele>
        <time>2013-10-12T09:29:22.109Z</time>
      </trkpt>
      <trkpt lat="50.39431" lon="3.80626">
        <ele>157.9</ele>
        <time>2013-10-12T09:29:22.961Z</time>
      </trkpt>
      <trkpt lat="50.39434" lon="3.80639">
        <ele>158.2</ele>
        <time>2013-10-12T09:29:31.892Z</time>
      </trkpt>
      <trkpt lat="50.39436" lon="3.8064">
        <ele>158.2</ele>
        <time>2013-10-12T09:29:32.892Z</time>
      </trkpt>
      <trkpt lat="50.39444" lon="3.80641">
        <ele>157.9</ele>
        <time>2013-10-12T09:29:38.718Z</time>
      </trkpt>
      <trkpt lat="50.39445" lon="3.80641">
        <ele>157.8</ele>
        <time>2013-10-12T09:29:39.564Z</time>
      </trkpt>
      <trkpt lat="50.39446" lon="3.80654">
        <ele>158.9</ele>
        <time>2013-10-12T09:29:48.741Z</time>
      </trkpt>
      <trkpt lat="50.39445" lon="3.80656">
        <ele>159.1</ele>
        <time>2013-10-12T09:29:49.747Z</time>
      </trkpt>
      <trkpt lat="50.3944" lon="3.80666">
        <ele>159.4</ele>
        <time>2013-10-12T09:29:53.747Z</time>
      </trkpt>
      <trkpt lat="50.39439" lon="3.80668">
        <ele>159.6</ele>
        <time>2013-10-12T09:29:54.739Z</time>
      </trkpt>
      <trkpt lat="50.3944" lon="3.80679">
        <ele>158.8</ele>
        <time>2013-10-12T09:30:05.017Z</time>
      </trkpt>
      <trkpt lat="50.39442" lon="3.80682">
        <ele>158.7</ele>
        <time>2013-10-12T09:30:05.260Z</time>
      </trkpt>
      <trkpt lat="50.39444" lon="3.80681">
        <ele>158.7</ele>
        <time>2013-10-12T09:30:07.046Z</time>
      </trkpt>
      <trkpt lat="50.3945" lon="3.80694">
        <ele>158.7</ele>
        <time>2013-10-12T09:30:18.738Z</time>
      </trkpt>
      <trkpt lat="50.39446" lon="3.80707">
        <ele>158.5</ele>
        <time>2013-10-12T09:30:21.586Z</time>
      </trkpt>
      <trkpt lat="50.39445" lon="3.80709">
        <ele>158.7</ele>
        <time>2013-10-12T09:30:22.450Z</time>
      </trkpt>
      <trkpt lat="50.39443" lon="3.80722">
        <ele>158.6</ele>
        <time>2013-10-12T09:30:27.208Z</time>
      </trkpt>
      <trkpt lat="50.39443" lon="3.80724">
        <ele>158.6</ele>
        <time>2013-10-12T09:30:28.210Z</time>
      </trkpt>
      <trkpt lat="50.39438" lon="3.80736">
        <ele>158.2</ele>
        <time>2013-10-12T09:30:34.215Z</time>
      </trkpt>
      <trkpt lat="50.39437" lon="3.80737">
        <ele>158.5</ele>
        <time>2013-10-12T09:30:35.214Z</time>
      </trkpt>
      <trkpt lat="50.39445" lon="3.80741">
        <ele>158.1</ele>
        <time>2013-10-12T09:30:47.356Z</time>
      </trkpt>
      <trkpt lat="50.39446" lon="3.80741">
        <ele>158.1</ele>
        <time>2013-10-12T09:30:48.068Z</time>
      </trkpt>
      <trkpt lat="50.39447" lon="3.80748">
        <ele>156.7</ele>
        <time>2013-10-12T09:30:53.069Z</time>
      </trkpt>
      <trkpt lat="50.39436" lon="3.80784">
        <ele>156.2</ele>
        <time>2013-10-12T09:31:14.652Z</time>
      </trkpt>
      <trkpt lat="50.39436" lon="3.80797">
        <ele>157.2</ele>
        <time>2013-10-12T09:31:19.562Z</time>
      </trkpt>
      <trkpt lat="50.39436" lon="3.80799">
        <ele>157.2</ele>
        <time>2013-10-12T09:31:20.394Z</time>
      </trkpt>
      <trkpt lat="50.39434" lon="3.80813">
        <ele>156.5</ele>
        <time>2013-10-12T09:31:25.962Z</time>
      </trkpt>
      <trkpt lat="50.39434" lon="3.80815">
        <ele>157.1</ele>
        <time>2013-10-12T09:31:26.817Z</time>
      </trkpt>
      <trkpt lat="50.39434" lon="3.80829">
        <ele>158.4</ele>
        <time>2013-10-12T09:31:39.667Z</time>
      </trkpt>
      <trkpt lat="50.39434" lon="3.8083">
        <ele>158.3</ele>
        <time>2013-10-12T09:31:40.673Z</time>
      </trkpt>
      <trkpt lat="50.39439" lon="3.80841">
        <ele>158.4</ele>
        <time>2013-10-12T09:31:48.887Z</time>
      </trkpt>
      <trkpt lat="50.3944" lon="3.80844">
        <ele>158.3</ele>
        <time>2013-10-12T09:31:49.884Z</time>
      </trkpt>
      <trkpt lat="50.39442" lon="3.80857">
        <ele>157.9</ele>
        <time>2013-10-12T09:31:57.615Z</time>
      </trkpt>
      <trkpt lat="50.39442" lon="3.80858">
        <ele>158.1</ele>
        <time>2013-10-12T09:31:58.472Z</time>
      </trkpt>
      <trkpt lat="50.39443" lon="3.80864">
        <ele>158</ele>
        <time>2013-10-12T09:32:05.977Z</time>
      </trkpt>
      <trkpt lat="50.39461" lon="3.80891">
        <ele>159.5</ele>
        <time>2013-10-12T09:32:26.205Z</time>
      </trkpt>
      <trkpt lat="50.39462" lon="3.80905">
        <ele>160.8</ele>
        <time>2013-10-12T09:32:34.683Z</time>
      </trkpt>
      <trkpt lat="50.39461" lon="3.80906">
        <ele>161.3</ele>
        <time>2013-10-12T09:32:35.686Z</time>
      </trkpt>
      <trkpt lat="50.39463" lon="3.80919">
        <ele>159.9</ele>
        <time>2013-10-12T09:32:46.852Z</time>
      </trkpt>
      <trkpt lat="50.39462" lon="3.80921">
        <ele>159.9</ele>
        <time>2013-10-12T09:32:47.832Z</time>
      </trkpt>
      <trkpt lat="50.39461" lon="3.80934">
        <ele>160.4</ele>
        <time>2013-10-12T09:32:56.793Z</time>
      </trkpt>
      <trkpt lat="50.39459" lon="3.80938">
        <ele>160.2</ele>
        <time>2013-10-12T09:32:57.735Z</time>
      </trkpt>
      <trkpt lat="50.39454" lon="3.80948">
        <ele>161.3</ele>
        <time>2013-10-12T09:33:00.330Z</time>
      </trkpt>
      <trkpt lat="50.39454" lon="3.8095">
        <ele>160.5</ele>
        <time>2013-10-12T09:33:01.324Z</time>
      </trkpt>
      <trkpt lat="50.39454" lon="3.80964">
        <ele>158.8</ele>
        <time>2013-10-12T09:33:08.055Z</time>
      </trkpt>
      <trkpt lat="50.39453" lon="3.80965">
        <ele>158.7</ele>
        <time>2013-10-12T09:33:09.050Z</time>
      </trkpt>
      <trkpt lat="50.39456" lon="3.80977">
        <ele>160.9</ele>
        <time>2013-10-12T09:33:26.922Z</time>
      </trkpt>
      <trkpt lat="50.39456" lon="3.8098">
        <ele>160.2</ele>
        <time>2013-10-12T09:33:27.934Z</time>
      </trkpt>
      <trkpt lat="50.39455" lon="3.80994">
        <ele>159.2</ele>
        <time>2013-10-12T09:33:34.068Z</time>
      </trkpt>
      <trkpt lat="50.39456" lon="3.80994">
        <ele>159.1</ele>
        <time>2013-10-12T09:33:34.307Z</time>
      </trkpt>
      <trkpt lat="50.39455" lon="3.81007">
        <ele>161.1</ele>
        <time>2013-10-12T09:33:40.191Z</time>
      </trkpt>
      <trkpt lat="50.39455" lon="3.81009">
        <ele>160.2</ele>
        <time>2013-10-12T09:33:41.178Z</time>
      </trkpt>
      <trkpt lat="50.39457" lon="3.81023">
        <ele>163</ele>
        <time>2013-10-12T09:33:53.817Z</time>
      </trkpt>
      <trkpt lat="50.39453" lon="3.81029">
        <ele>162.7</ele>
        <time>2013-10-12T09:33:54.675Z</time>
      </trkpt>
      <trkpt lat="50.3945" lon="3.81035">
        <ele>162.7</ele>
        <time>2013-10-12T09:33:56.582Z</time>
      </trkpt>
      <trkpt lat="50.39448" lon="3.81041">
        <ele>162.8</ele>
        <time>2013-10-12T09:33:56.807Z</time>
      </trkpt>
      <trkpt lat="50.39443" lon="3.81051">
        <ele>162.5</ele>
        <time>2013-10-12T09:33:59.583Z</time>
      </trkpt>
      <trkpt lat="50.39442" lon="3.81054">
        <ele>162.2</ele>
        <time>2013-10-12T09:34:00.586Z</time>
      </trkpt>
      <trkpt lat="50.39445" lon="3.81067">
        <ele>163.3</ele>
        <time>2013-10-12T09:34:05.574Z</time>
      </trkpt>
      <trkpt lat="50.39446" lon="3.81068">
        <ele>163</ele>
        <time>2013-10-12T09:34:06.579Z</time>
      </trkpt>
      <trkpt lat="50.39454" lon="3.81071">
        <ele>164.7</ele>
        <time>2013-10-12T09:34:11.720Z</time>
      </trkpt>
      <trkpt lat="50.39455" lon="3.81073">
        <ele>164.9</ele>
        <time>2013-10-12T09:34:12.238Z</time>
      </trkpt>
      <trkpt lat="50.39461" lon="3.81083">
        <ele>167.4</ele>
        <time>2013-10-12T09:34:22.470Z</time>
      </trkpt>
      <trkpt lat="50.39462" lon="3.81084">
        <ele>167.9</ele>
        <time>2013-10-12T09:34:23.490Z</time>
      </trkpt>
      <trkpt lat="50.39463" lon="3.81098">
        <ele>166.8</ele>
        <time>2013-10-12T09:34:39.298Z</time>
      </trkpt>
      <trkpt lat="50.39463" lon="3.81098">
        <ele>168.7</ele>
        <time>2013-10-12T09:34:40.103Z</time>
      </trkpt>
      <trkpt lat="50.39467" lon="3.81109">
        <ele>168.4</ele>
        <time>2013-10-12T09:34:49.127Z</time>
      </trkpt>
      <trkpt lat="50.39466" lon="3.81113">
        <ele>167.5</ele>
        <time>2013-10-12T09:34:50.129Z</time>
      </trkpt>
      <trkpt lat="50.39463" lon="3.81125">
        <ele>168</ele>
        <time>2013-10-12T09:34:55.545Z</time>
      </trkpt>
      <trkpt lat="50.39463" lon="3.81127">
        <ele>167.9</ele>
        <time>2013-10-12T09:34:56.354Z</time>
      </trkpt>
      <trkpt lat="50.39465" lon="3.8114">
        <ele>167.3</ele>
        <time>2013-10-12T09:35:08.453Z</time>
      </trkpt>
      <trkpt lat="50.39466" lon="3.81141">
        <ele>167.5</ele>
        <time>2013-10-12T09:35:08.526Z</time>
      </trkpt>
      <trkpt lat="50.3947" lon="3.81153">
        <ele>165.6</ele>
        <time>2013-10-12T09:35:18.464Z</time>
      </trkpt>
      <trkpt lat="50.3947" lon="3.81153">
        <ele>165.2</ele>
        <time>2013-10-12T09:35:18.540Z</time>
      </trkpt>
      <trkpt lat="50.39476" lon="3.81161">
        <ele>167.5</ele>
        <time>2013-10-12T09:35:28.474Z</time>
      </trkpt>
      <trkpt lat="50.39478" lon="3.81162">
        <ele>168</ele>
        <time>2013-10-12T09:35:29.008Z</time>
      </trkpt>
      <trkpt lat="50.39486" lon="3.81164">
        <ele>170.4</ele>
        <time>2013-10-12T09:35:35.021Z</time>
      </trkpt>
      <trkpt lat="50.39487" lon="3.81164">
        <ele>170.2</ele>
        <time>2013-10-12T09:35:36.022Z</time>
      </trkpt>
      <trkpt lat="50.39488" lon="3.81177">
        <ele>170.3</ele>
        <time>2013-10-12T09:35:42.362Z</time>
      </trkpt>
      <trkpt lat="50.39488" lon="3.81179">
        <ele>169.9</ele>
        <time>2013-10-12T09:35:43.357Z</time>
      </trkpt>
      <trkpt lat="50.3949" lon="3.81192">
        <ele>169.6</ele>
        <time>2013-10-12T09:35:49.890Z</time>
      </trkpt>
      <trkpt lat="50.3949" lon="3.81195">
        <ele>169.4</ele>
        <time>2013-10-12T09:35:50.896Z</time>
      </trkpt>
      <trkpt lat="50.39491" lon="3.81207">
        <ele>169.2</ele>
        <time>2013-10-12T09:35:57.306Z</time>
      </trkpt>
      <trkpt lat="50.39491" lon="3.81209">
        <ele>169.2</ele>
        <time>2013-10-12T09:35:58.033Z</time>
      </trkpt>
      <trkpt lat="50.39487" lon="3.81221">
        <ele>169.1</ele>
        <time>2013-10-12T09:36:07.319Z</time>
      </trkpt>
      <trkpt lat="50.39487" lon="3.81222">
        <ele>167.7</ele>
        <time>2013-10-12T09:36:08.202Z</time>
      </trkpt>
      <trkpt lat="50.39482" lon="3.81233">
        <ele>167.9</ele>
        <time>2013-10-12T09:36:13.234Z</time>
      </trkpt>
      <trkpt lat="50.39482" lon="3.81234">
        <ele>168.2</ele>
        <time>2013-10-12T09:36:14.231Z</time>
      </trkpt>
      <trkpt lat="50.39487" lon="3.81244">
        <ele>166.7</ele>
        <time>2013-10-12T09:36:20.478Z</time>
      </trkpt>
      <trkpt lat="50.39488" lon="3.81247">
        <ele>167</ele>
        <time>2013-10-12T09:36:21.487Z</time>
      </trkpt>
      <trkpt lat="50.39494" lon="3.81254">
        <ele>169.5</ele>
        <time>2013-10-12T09:36:36.723Z</time>
      </trkpt>
      <trkpt lat="50.39496" lon="3.81254">
        <ele>169</ele>
        <time>2013-10-12T09:36:37.733Z</time>
      </trkpt>
      <trkpt lat="50.39501" lon="3.81265">
        <ele>167.2</ele>
        <time>2013-10-12T09:36:42.396Z</time>
      </trkpt>
      <trkpt lat="50.39501" lon="3.81267">
        <ele>167.6</ele>
        <time>2013-10-12T09:36:43.210Z</time>
      </trkpt>
      <trkpt lat="50.39496" lon="3.81275">
        <ele>168.1</ele>
        <time>2013-10-12T09:36:46.899Z</time>
      </trkpt>
      <trkpt lat="50.39494" lon="3.81276">
        <ele>168.2</ele>
        <time>2013-10-12T09:36:48.106Z</time>
      </trkpt>
      <trkpt lat="50.39492" lon="3.81275">
        <ele>165.7</ele>
        <time>2013-10-12T09:36:53.913Z</time>
      </trkpt>
    </trkseg>
  </trk>
</gpx>